<?xml version="1.0" encoding="UTF-8" standalone="no" ?>
<gpx xmlns="http://www.topografix.com/GPX/1/1" xmlns:xsi="http://www.w3.org/2001/XMLSchema-instance" xsi:schemaLocation="http://www.topografix.com/GPX/1/1 http://www.topografix.com/GPX/1/1/gpx.xsd" version="1.1" creator="VisuGPX - https://www.visugpx.com">
  <metadata>
    <name>Biarne - Chevigny - Rainans</name>
    <desc><![CDATA[Randonnée effectuée le 15 novembre 2017]]></desc>
  </metadata>
  <trk>
    <name><![CDATA[15 nov. 2017 à 09:04:34]]></name>
    <cmt><![CDATA[15 nov. 2017 à 09:04:34]]></cmt>
    <trkseg>
      <trkpt lat="47.14587" lon="5.45948">
        <ele>204</ele>
        <time>2017-11-15T08:04:34Z</time>
      </trkpt>
      <trkpt lat="47.14587" lon="5.45955">
        <ele>202</ele>
        <time>2017-11-15T08:04:46Z</time>
      </trkpt>
      <trkpt lat="47.14592" lon="5.45952">
        <ele>201</ele>
        <time>2017-11-15T08:04:51Z</time>
      </trkpt>
      <trkpt lat="47.14593" lon="5.45945">
        <ele>200</ele>
        <time>2017-11-15T08:04:55Z</time>
      </trkpt>
      <trkpt lat="47.14596" lon="5.45938">
        <ele>199</ele>
        <time>2017-11-15T08:05:00Z</time>
      </trkpt>
      <trkpt lat="47.14605" lon="5.45932">
        <ele>199</ele>
        <time>2017-11-15T08:05:08Z</time>
      </trkpt>
      <trkpt lat="47.1461" lon="5.45929">
        <ele>199</ele>
        <time>2017-11-15T08:05:13Z</time>
      </trkpt>
      <trkpt lat="47.14613" lon="5.45924">
        <ele>199</ele>
        <time>2017-11-15T08:05:18Z</time>
      </trkpt>
      <trkpt lat="47.14615" lon="5.45917">
        <ele>199</ele>
        <time>2017-11-15T08:05:22Z</time>
      </trkpt>
      <trkpt lat="47.14618" lon="5.4591">
        <ele>199</ele>
        <time>2017-11-15T08:05:26Z</time>
      </trkpt>
      <trkpt lat="47.14621" lon="5.45904">
        <ele>199</ele>
        <time>2017-11-15T08:05:32Z</time>
      </trkpt>
      <trkpt lat="47.14626" lon="5.45903">
        <ele>199</ele>
        <time>2017-11-15T08:05:38Z</time>
      </trkpt>
      <trkpt lat="47.14634" lon="5.45896">
        <ele>201</ele>
        <time>2017-11-15T08:05:44Z</time>
      </trkpt>
      <trkpt lat="47.14642" lon="5.45885">
        <ele>202</ele>
        <time>2017-11-15T08:05:51Z</time>
      </trkpt>
      <trkpt lat="47.14646" lon="5.45884">
        <ele>203</ele>
        <time>2017-11-15T08:05:54Z</time>
      </trkpt>
      <trkpt lat="47.14652" lon="5.45885">
        <ele>203</ele>
        <time>2017-11-15T08:05:58Z</time>
      </trkpt>
      <trkpt lat="47.14662" lon="5.45887">
        <ele>203</ele>
        <time>2017-11-15T08:06:05Z</time>
      </trkpt>
      <trkpt lat="47.14667" lon="5.45888">
        <ele>203</ele>
        <time>2017-11-15T08:06:09Z</time>
      </trkpt>
      <trkpt lat="47.14672" lon="5.4589">
        <ele>204</ele>
        <time>2017-11-15T08:06:13Z</time>
      </trkpt>
      <trkpt lat="47.14677" lon="5.45891">
        <ele>205</ele>
        <time>2017-11-15T08:06:17Z</time>
      </trkpt>
      <trkpt lat="47.14683" lon="5.45893">
        <ele>205</ele>
        <time>2017-11-15T08:06:21Z</time>
      </trkpt>
      <trkpt lat="47.14687" lon="5.45894">
        <ele>205</ele>
        <time>2017-11-15T08:06:25Z</time>
      </trkpt>
      <trkpt lat="47.14692" lon="5.45897">
        <ele>205</ele>
        <time>2017-11-15T08:06:29Z</time>
      </trkpt>
      <trkpt lat="47.14707" lon="5.45906">
        <ele>206</ele>
        <time>2017-11-15T08:06:40Z</time>
      </trkpt>
      <trkpt lat="47.1472" lon="5.45915">
        <ele>207</ele>
        <time>2017-11-15T08:06:52Z</time>
      </trkpt>
      <trkpt lat="47.14725" lon="5.45916">
        <ele>208</ele>
        <time>2017-11-15T08:06:56Z</time>
      </trkpt>
      <trkpt lat="47.14749" lon="5.45931">
        <ele>211</ele>
        <time>2017-11-15T08:07:16Z</time>
      </trkpt>
      <trkpt lat="47.14765" lon="5.45932">
        <ele>212</ele>
        <time>2017-11-15T08:07:29Z</time>
      </trkpt>
      <trkpt lat="47.14768" lon="5.45926">
        <ele>212</ele>
        <time>2017-11-15T08:07:33Z</time>
      </trkpt>
      <trkpt lat="47.14777" lon="5.45898">
        <ele>211</ele>
        <time>2017-11-15T08:07:49Z</time>
      </trkpt>
      <trkpt lat="47.14779" lon="5.45891">
        <ele>212</ele>
        <time>2017-11-15T08:07:53Z</time>
      </trkpt>
      <trkpt lat="47.14782" lon="5.45883">
        <ele>211</ele>
        <time>2017-11-15T08:07:57Z</time>
      </trkpt>
      <trkpt lat="47.14783" lon="5.45876">
        <ele>211</ele>
        <time>2017-11-15T08:08:01Z</time>
      </trkpt>
      <trkpt lat="47.14799" lon="5.45816">
        <ele>212</ele>
        <time>2017-11-15T08:08:33Z</time>
      </trkpt>
      <trkpt lat="47.14803" lon="5.45802">
        <ele>212</ele>
        <time>2017-11-15T08:08:41Z</time>
      </trkpt>
      <trkpt lat="47.14806" lon="5.45795">
        <ele>212</ele>
        <time>2017-11-15T08:08:45Z</time>
      </trkpt>
      <trkpt lat="47.1481" lon="5.45791">
        <ele>211</ele>
        <time>2017-11-15T08:08:49Z</time>
      </trkpt>
      <trkpt lat="47.14815" lon="5.45791">
        <ele>211</ele>
        <time>2017-11-15T08:08:53Z</time>
      </trkpt>
      <trkpt lat="47.14846" lon="5.45818">
        <ele>211</ele>
        <time>2017-11-15T08:09:20Z</time>
      </trkpt>
      <trkpt lat="47.14854" lon="5.45827">
        <ele>212</ele>
        <time>2017-11-15T08:09:27Z</time>
      </trkpt>
      <trkpt lat="47.14873" lon="5.45844">
        <ele>214</ele>
        <time>2017-11-15T08:09:43Z</time>
      </trkpt>
      <trkpt lat="47.14881" lon="5.45853">
        <ele>215</ele>
        <time>2017-11-15T08:09:51Z</time>
      </trkpt>
      <trkpt lat="47.1489" lon="5.45859">
        <ele>216</ele>
        <time>2017-11-15T08:09:59Z</time>
      </trkpt>
      <trkpt lat="47.14894" lon="5.45863">
        <ele>217</ele>
        <time>2017-11-15T08:10:02Z</time>
      </trkpt>
      <trkpt lat="47.14908" lon="5.45876">
        <ele>217</ele>
        <time>2017-11-15T08:10:14Z</time>
      </trkpt>
      <trkpt lat="47.14918" lon="5.45883">
        <ele>218</ele>
        <time>2017-11-15T08:10:22Z</time>
      </trkpt>
      <trkpt lat="47.1493" lon="5.45896">
        <ele>217</ele>
        <time>2017-11-15T08:10:34Z</time>
      </trkpt>
      <trkpt lat="47.14935" lon="5.45899">
        <ele>217</ele>
        <time>2017-11-15T08:10:38Z</time>
      </trkpt>
      <trkpt lat="47.14949" lon="5.45909">
        <ele>217</ele>
        <time>2017-11-15T08:10:50Z</time>
      </trkpt>
      <trkpt lat="47.14963" lon="5.4592">
        <ele>218</ele>
        <time>2017-11-15T08:11:01Z</time>
      </trkpt>
      <trkpt lat="47.14997" lon="5.45946">
        <ele>218</ele>
        <time>2017-11-15T08:11:28Z</time>
      </trkpt>
      <trkpt lat="47.15016" lon="5.45959">
        <ele>218</ele>
        <time>2017-11-15T08:11:43Z</time>
      </trkpt>
      <trkpt lat="47.15037" lon="5.45969">
        <ele>219</ele>
        <time>2017-11-15T08:11:59Z</time>
      </trkpt>
      <trkpt lat="47.15064" lon="5.45978">
        <ele>219</ele>
        <time>2017-11-15T08:12:19Z</time>
      </trkpt>
      <trkpt lat="47.15074" lon="5.45983">
        <ele>218</ele>
        <time>2017-11-15T08:12:27Z</time>
      </trkpt>
      <trkpt lat="47.15086" lon="5.45986">
        <ele>218</ele>
        <time>2017-11-15T08:12:35Z</time>
      </trkpt>
      <trkpt lat="47.15091" lon="5.45988">
        <ele>218</ele>
        <time>2017-11-15T08:12:39Z</time>
      </trkpt>
      <trkpt lat="47.15102" lon="5.45991">
        <ele>218</ele>
        <time>2017-11-15T08:12:47Z</time>
      </trkpt>
      <trkpt lat="47.15132" lon="5.46003">
        <ele>216</ele>
        <time>2017-11-15T08:13:11Z</time>
      </trkpt>
      <trkpt lat="47.15162" lon="5.46015">
        <ele>218</ele>
        <time>2017-11-15T08:13:33Z</time>
      </trkpt>
      <trkpt lat="47.15167" lon="5.46016">
        <ele>218</ele>
        <time>2017-11-15T08:13:37Z</time>
      </trkpt>
      <trkpt lat="47.15178" lon="5.46021">
        <ele>219</ele>
        <time>2017-11-15T08:13:45Z</time>
      </trkpt>
      <trkpt lat="47.15194" lon="5.46029">
        <ele>219</ele>
        <time>2017-11-15T08:13:57Z</time>
      </trkpt>
      <trkpt lat="47.15205" lon="5.46033">
        <ele>219</ele>
        <time>2017-11-15T08:14:05Z</time>
      </trkpt>
      <trkpt lat="47.1521" lon="5.46036">
        <ele>219</ele>
        <time>2017-11-15T08:14:09Z</time>
      </trkpt>
      <trkpt lat="47.15246" lon="5.46051">
        <ele>220</ele>
        <time>2017-11-15T08:14:37Z</time>
      </trkpt>
      <trkpt lat="47.1528" lon="5.46056">
        <ele>222</ele>
        <time>2017-11-15T08:15:01Z</time>
      </trkpt>
      <trkpt lat="47.15289" lon="5.46056">
        <ele>222</ele>
        <time>2017-11-15T08:15:08Z</time>
      </trkpt>
      <trkpt lat="47.15318" lon="5.46047">
        <ele>223</ele>
        <time>2017-11-15T08:15:34Z</time>
      </trkpt>
      <trkpt lat="47.15323" lon="5.46049">
        <ele>222</ele>
        <time>2017-11-15T08:15:38Z</time>
      </trkpt>
      <trkpt lat="47.15328" lon="5.46048">
        <ele>222</ele>
        <time>2017-11-15T08:15:41Z</time>
      </trkpt>
      <trkpt lat="47.15339" lon="5.46045">
        <ele>222</ele>
        <time>2017-11-15T08:15:48Z</time>
      </trkpt>
      <trkpt lat="47.15348" lon="5.46042">
        <ele>222</ele>
        <time>2017-11-15T08:15:55Z</time>
      </trkpt>
      <trkpt lat="47.15354" lon="5.4604">
        <ele>220</ele>
        <time>2017-11-15T08:15:59Z</time>
      </trkpt>
      <trkpt lat="47.15359" lon="5.46039">
        <ele>220</ele>
        <time>2017-11-15T08:16:02Z</time>
      </trkpt>
      <trkpt lat="47.15364" lon="5.46038">
        <ele>220</ele>
        <time>2017-11-15T08:16:06Z</time>
      </trkpt>
      <trkpt lat="47.15389" lon="5.46033">
        <ele>221</ele>
        <time>2017-11-15T08:16:26Z</time>
      </trkpt>
      <trkpt lat="47.15431" lon="5.46025">
        <ele>220</ele>
        <time>2017-11-15T08:16:57Z</time>
      </trkpt>
      <trkpt lat="47.15436" lon="5.46024">
        <ele>220</ele>
        <time>2017-11-15T08:17:01Z</time>
      </trkpt>
      <trkpt lat="47.15456" lon="5.46023">
        <ele>222</ele>
        <time>2017-11-15T08:17:15Z</time>
      </trkpt>
      <trkpt lat="47.1546" lon="5.4602">
        <ele>222</ele>
        <time>2017-11-15T08:17:18Z</time>
      </trkpt>
      <trkpt lat="47.15464" lon="5.46015">
        <ele>222</ele>
        <time>2017-11-15T08:17:21Z</time>
      </trkpt>
      <trkpt lat="47.1547" lon="5.46004">
        <ele>221</ele>
        <time>2017-11-15T08:17:28Z</time>
      </trkpt>
      <trkpt lat="47.15472" lon="5.45988">
        <ele>220</ele>
        <time>2017-11-15T08:17:35Z</time>
      </trkpt>
      <trkpt lat="47.15474" lon="5.4598">
        <ele>220</ele>
        <time>2017-11-15T08:17:39Z</time>
      </trkpt>
      <trkpt lat="47.1548" lon="5.45942">
        <ele>217</ele>
        <time>2017-11-15T08:17:57Z</time>
      </trkpt>
      <trkpt lat="47.15481" lon="5.45934">
        <ele>217</ele>
        <time>2017-11-15T08:18:01Z</time>
      </trkpt>
      <trkpt lat="47.15483" lon="5.45927">
        <ele>218</ele>
        <time>2017-11-15T08:18:05Z</time>
      </trkpt>
      <trkpt lat="47.15485" lon="5.4592">
        <ele>218</ele>
        <time>2017-11-15T08:18:09Z</time>
      </trkpt>
      <trkpt lat="47.15489" lon="5.45899">
        <ele>216</ele>
        <time>2017-11-15T08:18:21Z</time>
      </trkpt>
      <trkpt lat="47.15505" lon="5.45842">
        <ele>216</ele>
        <time>2017-11-15T08:18:53Z</time>
      </trkpt>
      <trkpt lat="47.15507" lon="5.45834">
        <ele>216</ele>
        <time>2017-11-15T08:18:57Z</time>
      </trkpt>
      <trkpt lat="47.15515" lon="5.45796">
        <ele>214</ele>
        <time>2017-11-15T08:19:16Z</time>
      </trkpt>
      <trkpt lat="47.1552" lon="5.45791">
        <ele>214</ele>
        <time>2017-11-15T08:19:20Z</time>
      </trkpt>
      <trkpt lat="47.15524" lon="5.45791">
        <ele>215</ele>
        <time>2017-11-15T08:19:23Z</time>
      </trkpt>
      <trkpt lat="47.15529" lon="5.45792">
        <ele>215</ele>
        <time>2017-11-15T08:19:26Z</time>
      </trkpt>
      <trkpt lat="47.15569" lon="5.45821">
        <ele>218</ele>
        <time>2017-11-15T08:19:57Z</time>
      </trkpt>
      <trkpt lat="47.15607" lon="5.45848">
        <ele>219</ele>
        <time>2017-11-15T08:20:29Z</time>
      </trkpt>
      <trkpt lat="47.15631" lon="5.45864">
        <ele>220</ele>
        <time>2017-11-15T08:20:49Z</time>
      </trkpt>
      <trkpt lat="47.15642" lon="5.45867">
        <ele>219</ele>
        <time>2017-11-15T08:20:57Z</time>
      </trkpt>
      <trkpt lat="47.15667" lon="5.45879">
        <ele>222</ele>
        <time>2017-11-15T08:21:17Z</time>
      </trkpt>
      <trkpt lat="47.15687" lon="5.45889">
        <ele>225</ele>
        <time>2017-11-15T08:21:34Z</time>
      </trkpt>
      <trkpt lat="47.15698" lon="5.4589">
        <ele>226</ele>
        <time>2017-11-15T08:21:44Z</time>
      </trkpt>
      <trkpt lat="47.15708" lon="5.45892">
        <ele>225</ele>
        <time>2017-11-15T08:21:52Z</time>
      </trkpt>
      <trkpt lat="47.15727" lon="5.45898">
        <ele>222</ele>
        <time>2017-11-15T08:22:07Z</time>
      </trkpt>
      <trkpt lat="47.15732" lon="5.45899">
        <ele>222</ele>
        <time>2017-11-15T08:22:10Z</time>
      </trkpt>
      <trkpt lat="47.15738" lon="5.45898">
        <ele>222</ele>
        <time>2017-11-15T08:22:14Z</time>
      </trkpt>
      <trkpt lat="47.15758" lon="5.45897">
        <ele>222</ele>
        <time>2017-11-15T08:22:28Z</time>
      </trkpt>
      <trkpt lat="47.15786" lon="5.45893">
        <ele>220</ele>
        <time>2017-11-15T08:22:50Z</time>
      </trkpt>
      <trkpt lat="47.15803" lon="5.45907">
        <ele>221</ele>
        <time>2017-11-15T08:23:06Z</time>
      </trkpt>
      <trkpt lat="47.15816" lon="5.45924">
        <ele>221</ele>
        <time>2017-11-15T08:23:17Z</time>
      </trkpt>
      <trkpt lat="47.1583" lon="5.45932">
        <ele>222</ele>
        <time>2017-11-15T08:23:29Z</time>
      </trkpt>
      <trkpt lat="47.15835" lon="5.45933">
        <ele>221</ele>
        <time>2017-11-15T08:23:33Z</time>
      </trkpt>
      <trkpt lat="47.15844" lon="5.45939">
        <ele>220</ele>
        <time>2017-11-15T08:23:41Z</time>
      </trkpt>
      <trkpt lat="47.15854" lon="5.45944">
        <ele>220</ele>
        <time>2017-11-15T08:23:49Z</time>
      </trkpt>
      <trkpt lat="47.15882" lon="5.45961">
        <ele>219</ele>
        <time>2017-11-15T08:24:12Z</time>
      </trkpt>
      <trkpt lat="47.15887" lon="5.45964">
        <ele>219</ele>
        <time>2017-11-15T08:24:16Z</time>
      </trkpt>
      <trkpt lat="47.15891" lon="5.45965">
        <ele>218</ele>
        <time>2017-11-15T08:24:21Z</time>
      </trkpt>
      <trkpt lat="47.15897" lon="5.45967">
        <ele>218</ele>
        <time>2017-11-15T08:24:25Z</time>
      </trkpt>
      <trkpt lat="47.15912" lon="5.45979">
        <ele>219</ele>
        <time>2017-11-15T08:24:37Z</time>
      </trkpt>
      <trkpt lat="47.15915" lon="5.45984">
        <ele>219</ele>
        <time>2017-11-15T08:24:41Z</time>
      </trkpt>
      <trkpt lat="47.15927" lon="5.45992">
        <ele>220</ele>
        <time>2017-11-15T08:24:50Z</time>
      </trkpt>
      <trkpt lat="47.1593" lon="5.45998">
        <ele>221</ele>
        <time>2017-11-15T08:24:54Z</time>
      </trkpt>
      <trkpt lat="47.15929" lon="5.46003">
        <ele>217</ele>
        <time>2017-11-15T08:26:27Z</time>
      </trkpt>
      <trkpt lat="47.15934" lon="5.46011">
        <ele>219</ele>
        <time>2017-11-15T08:28:44Z</time>
      </trkpt>
      <trkpt lat="47.15944" lon="5.46017">
        <ele>221</ele>
        <time>2017-11-15T08:28:51Z</time>
      </trkpt>
      <trkpt lat="47.15948" lon="5.46021">
        <ele>222</ele>
        <time>2017-11-15T08:28:54Z</time>
      </trkpt>
      <trkpt lat="47.15951" lon="5.46027">
        <ele>223</ele>
        <time>2017-11-15T08:28:57Z</time>
      </trkpt>
      <trkpt lat="47.15959" lon="5.46036">
        <ele>223</ele>
        <time>2017-11-15T08:29:04Z</time>
      </trkpt>
      <trkpt lat="47.15981" lon="5.46056">
        <ele>217</ele>
        <time>2017-11-15T08:29:24Z</time>
      </trkpt>
      <trkpt lat="47.15988" lon="5.46067">
        <ele>217</ele>
        <time>2017-11-15T08:29:31Z</time>
      </trkpt>
      <trkpt lat="47.15992" lon="5.46073">
        <ele>217</ele>
        <time>2017-11-15T08:29:35Z</time>
      </trkpt>
      <trkpt lat="47.15996" lon="5.46078">
        <ele>217</ele>
        <time>2017-11-15T08:29:39Z</time>
      </trkpt>
      <trkpt lat="47.16003" lon="5.46086">
        <ele>216</ele>
        <time>2017-11-15T08:29:47Z</time>
      </trkpt>
      <trkpt lat="47.16007" lon="5.46091">
        <ele>215</ele>
        <time>2017-11-15T08:29:51Z</time>
      </trkpt>
      <trkpt lat="47.16017" lon="5.46108">
        <ele>215</ele>
        <time>2017-11-15T08:30:03Z</time>
      </trkpt>
      <trkpt lat="47.16021" lon="5.46113">
        <ele>215</ele>
        <time>2017-11-15T08:30:07Z</time>
      </trkpt>
      <trkpt lat="47.16025" lon="5.46117">
        <ele>215</ele>
        <time>2017-11-15T08:30:11Z</time>
      </trkpt>
      <trkpt lat="47.16029" lon="5.46119">
        <ele>216</ele>
        <time>2017-11-15T08:30:17Z</time>
      </trkpt>
      <trkpt lat="47.16034" lon="5.4612">
        <ele>216</ele>
        <time>2017-11-15T08:30:22Z</time>
      </trkpt>
      <trkpt lat="47.16076" lon="5.46137">
        <ele>216</ele>
        <time>2017-11-15T08:30:54Z</time>
      </trkpt>
      <trkpt lat="47.161" lon="5.46148">
        <ele>216</ele>
        <time>2017-11-15T08:31:14Z</time>
      </trkpt>
      <trkpt lat="47.16139" lon="5.46174">
        <ele>218</ele>
        <time>2017-11-15T08:31:45Z</time>
      </trkpt>
      <trkpt lat="47.16168" lon="5.46195">
        <ele>217</ele>
        <time>2017-11-15T08:32:09Z</time>
      </trkpt>
      <trkpt lat="47.16206" lon="5.46224">
        <ele>220</ele>
        <time>2017-11-15T08:32:40Z</time>
      </trkpt>
      <trkpt lat="47.16211" lon="5.46228">
        <ele>220</ele>
        <time>2017-11-15T08:32:44Z</time>
      </trkpt>
      <trkpt lat="47.1623" lon="5.46241">
        <ele>218</ele>
        <time>2017-11-15T08:33:00Z</time>
      </trkpt>
      <trkpt lat="47.16245" lon="5.46251">
        <ele>218</ele>
        <time>2017-11-15T08:33:12Z</time>
      </trkpt>
      <trkpt lat="47.16249" lon="5.46253">
        <ele>218</ele>
        <time>2017-11-15T08:33:15Z</time>
      </trkpt>
      <trkpt lat="47.16289" lon="5.4628">
        <ele>220</ele>
        <time>2017-11-15T08:33:47Z</time>
      </trkpt>
      <trkpt lat="47.16299" lon="5.46287">
        <ele>220</ele>
        <time>2017-11-15T08:33:55Z</time>
      </trkpt>
      <trkpt lat="47.16319" lon="5.46302">
        <ele>222</ele>
        <time>2017-11-15T08:34:11Z</time>
      </trkpt>
      <trkpt lat="47.16352" lon="5.46328">
        <ele>223</ele>
        <time>2017-11-15T08:34:39Z</time>
      </trkpt>
      <trkpt lat="47.16362" lon="5.46335">
        <ele>224</ele>
        <time>2017-11-15T08:34:47Z</time>
      </trkpt>
      <trkpt lat="47.16366" lon="5.46339">
        <ele>225</ele>
        <time>2017-11-15T08:34:51Z</time>
      </trkpt>
      <trkpt lat="47.16375" lon="5.46347">
        <ele>225</ele>
        <time>2017-11-15T08:34:59Z</time>
      </trkpt>
      <trkpt lat="47.16383" lon="5.46356">
        <ele>225</ele>
        <time>2017-11-15T08:35:07Z</time>
      </trkpt>
      <trkpt lat="47.1641" lon="5.46404">
        <ele>223</ele>
        <time>2017-11-15T08:35:38Z</time>
      </trkpt>
      <trkpt lat="47.16414" lon="5.4641">
        <ele>223</ele>
        <time>2017-11-15T08:35:42Z</time>
      </trkpt>
      <trkpt lat="47.16421" lon="5.46421">
        <ele>222</ele>
        <time>2017-11-15T08:35:50Z</time>
      </trkpt>
      <trkpt lat="47.16425" lon="5.46427">
        <ele>222</ele>
        <time>2017-11-15T08:35:54Z</time>
      </trkpt>
      <trkpt lat="47.16437" lon="5.46445">
        <ele>220</ele>
        <time>2017-11-15T08:36:06Z</time>
      </trkpt>
      <trkpt lat="47.1644" lon="5.46451">
        <ele>220</ele>
        <time>2017-11-15T08:36:10Z</time>
      </trkpt>
      <trkpt lat="47.16452" lon="5.46468">
        <ele>222</ele>
        <time>2017-11-15T08:36:22Z</time>
      </trkpt>
      <trkpt lat="47.16483" lon="5.46511">
        <ele>221</ele>
        <time>2017-11-15T08:36:54Z</time>
      </trkpt>
      <trkpt lat="47.16488" lon="5.46515">
        <ele>221</ele>
        <time>2017-11-15T08:36:58Z</time>
      </trkpt>
      <trkpt lat="47.16501" lon="5.46528">
        <ele>222</ele>
        <time>2017-11-15T08:37:10Z</time>
      </trkpt>
      <trkpt lat="47.16537" lon="5.46563">
        <ele>221</ele>
        <time>2017-11-15T08:37:41Z</time>
      </trkpt>
      <trkpt lat="47.16542" lon="5.46567">
        <ele>221</ele>
        <time>2017-11-15T08:37:45Z</time>
      </trkpt>
      <trkpt lat="47.16547" lon="5.46571">
        <ele>221</ele>
        <time>2017-11-15T08:37:49Z</time>
      </trkpt>
      <trkpt lat="47.16565" lon="5.46589">
        <ele>220</ele>
        <time>2017-11-15T08:38:05Z</time>
      </trkpt>
      <trkpt lat="47.16587" lon="5.46611">
        <ele>222</ele>
        <time>2017-11-15T08:38:25Z</time>
      </trkpt>
      <trkpt lat="47.16603" lon="5.46632">
        <ele>225</ele>
        <time>2017-11-15T08:38:40Z</time>
      </trkpt>
      <trkpt lat="47.16618" lon="5.46651">
        <ele>224</ele>
        <time>2017-11-15T08:38:56Z</time>
      </trkpt>
      <trkpt lat="47.16634" lon="5.46671">
        <ele>225</ele>
        <time>2017-11-15T08:39:12Z</time>
      </trkpt>
      <trkpt lat="47.16668" lon="5.46709">
        <ele>229</ele>
        <time>2017-11-15T08:39:44Z</time>
      </trkpt>
      <trkpt lat="47.16695" lon="5.46734">
        <ele>233</ele>
        <time>2017-11-15T08:40:08Z</time>
      </trkpt>
      <trkpt lat="47.16733" lon="5.46766">
        <ele>231</ele>
        <time>2017-11-15T08:40:40Z</time>
      </trkpt>
      <trkpt lat="47.16737" lon="5.4677">
        <ele>231</ele>
        <time>2017-11-15T08:40:44Z</time>
      </trkpt>
      <trkpt lat="47.16772" lon="5.46804">
        <ele>234</ele>
        <time>2017-11-15T08:41:16Z</time>
      </trkpt>
      <trkpt lat="47.16777" lon="5.46808">
        <ele>234</ele>
        <time>2017-11-15T08:41:20Z</time>
      </trkpt>
      <trkpt lat="47.16799" lon="5.46827">
        <ele>236</ele>
        <time>2017-11-15T08:41:40Z</time>
      </trkpt>
      <trkpt lat="47.16807" lon="5.46835">
        <ele>235</ele>
        <time>2017-11-15T08:41:48Z</time>
      </trkpt>
      <trkpt lat="47.1684" lon="5.46872">
        <ele>238</ele>
        <time>2017-11-15T08:42:20Z</time>
      </trkpt>
      <trkpt lat="47.16851" lon="5.46888">
        <ele>237</ele>
        <time>2017-11-15T08:42:32Z</time>
      </trkpt>
      <trkpt lat="47.16867" lon="5.46909">
        <ele>239</ele>
        <time>2017-11-15T08:42:48Z</time>
      </trkpt>
      <trkpt lat="47.1687" lon="5.46915">
        <ele>239</ele>
        <time>2017-11-15T08:42:52Z</time>
      </trkpt>
      <trkpt lat="47.16877" lon="5.46925">
        <ele>238</ele>
        <time>2017-11-15T08:43:00Z</time>
      </trkpt>
      <trkpt lat="47.16898" lon="5.46948">
        <ele>238</ele>
        <time>2017-11-15T08:43:19Z</time>
      </trkpt>
      <trkpt lat="47.16903" lon="5.46952">
        <ele>238</ele>
        <time>2017-11-15T08:43:23Z</time>
      </trkpt>
      <trkpt lat="47.16907" lon="5.46956">
        <ele>238</ele>
        <time>2017-11-15T08:43:27Z</time>
      </trkpt>
      <trkpt lat="47.16916" lon="5.46965">
        <ele>239</ele>
        <time>2017-11-15T08:43:35Z</time>
      </trkpt>
      <trkpt lat="47.16926" lon="5.46969">
        <ele>239</ele>
        <time>2017-11-15T08:43:43Z</time>
      </trkpt>
      <trkpt lat="47.16951" lon="5.4698">
        <ele>243</ele>
        <time>2017-11-15T08:44:06Z</time>
      </trkpt>
      <trkpt lat="47.16956" lon="5.46983">
        <ele>244</ele>
        <time>2017-11-15T08:44:10Z</time>
      </trkpt>
      <trkpt lat="47.16966" lon="5.46989">
        <ele>244</ele>
        <time>2017-11-15T08:44:18Z</time>
      </trkpt>
      <trkpt lat="47.16971" lon="5.46991">
        <ele>244</ele>
        <time>2017-11-15T08:44:22Z</time>
      </trkpt>
      <trkpt lat="47.1698" lon="5.46994">
        <ele>242</ele>
        <time>2017-11-15T08:44:30Z</time>
      </trkpt>
      <trkpt lat="47.16991" lon="5.46997">
        <ele>242</ele>
        <time>2017-11-15T08:44:38Z</time>
      </trkpt>
      <trkpt lat="47.17012" lon="5.46999">
        <ele>243</ele>
        <time>2017-11-15T08:44:54Z</time>
      </trkpt>
      <trkpt lat="47.17044" lon="5.46992">
        <ele>245</ele>
        <time>2017-11-15T08:45:18Z</time>
      </trkpt>
      <trkpt lat="47.17065" lon="5.46987">
        <ele>243</ele>
        <time>2017-11-15T08:45:34Z</time>
      </trkpt>
      <trkpt lat="47.1707" lon="5.46984">
        <ele>243</ele>
        <time>2017-11-15T08:45:38Z</time>
      </trkpt>
      <trkpt lat="47.1709" lon="5.46982">
        <ele>243</ele>
        <time>2017-11-15T08:45:53Z</time>
      </trkpt>
      <trkpt lat="47.17111" lon="5.46983">
        <ele>241</ele>
        <time>2017-11-15T08:46:09Z</time>
      </trkpt>
      <trkpt lat="47.17132" lon="5.46987">
        <ele>241</ele>
        <time>2017-11-15T08:46:25Z</time>
      </trkpt>
      <trkpt lat="47.17137" lon="5.46988">
        <ele>241</ele>
        <time>2017-11-15T08:46:28Z</time>
      </trkpt>
      <trkpt lat="47.17152" lon="5.46993">
        <ele>241</ele>
        <time>2017-11-15T08:46:40Z</time>
      </trkpt>
      <trkpt lat="47.17179" lon="5.47005">
        <ele>237</ele>
        <time>2017-11-15T08:47:00Z</time>
      </trkpt>
      <trkpt lat="47.17204" lon="5.47019">
        <ele>236</ele>
        <time>2017-11-15T08:47:20Z</time>
      </trkpt>
      <trkpt lat="47.17222" lon="5.47036">
        <ele>234</ele>
        <time>2017-11-15T08:47:36Z</time>
      </trkpt>
      <trkpt lat="47.17226" lon="5.47042">
        <ele>234</ele>
        <time>2017-11-15T08:47:40Z</time>
      </trkpt>
      <trkpt lat="47.1723" lon="5.47048">
        <ele>234</ele>
        <time>2017-11-15T08:47:44Z</time>
      </trkpt>
      <trkpt lat="47.17245" lon="5.47066">
        <ele>232</ele>
        <time>2017-11-15T08:48:02Z</time>
      </trkpt>
      <trkpt lat="47.17248" lon="5.47072">
        <ele>232</ele>
        <time>2017-11-15T08:48:07Z</time>
      </trkpt>
      <trkpt lat="47.17282" lon="5.47113">
        <ele>231</ele>
        <time>2017-11-15T08:48:39Z</time>
      </trkpt>
      <trkpt lat="47.17311" lon="5.47149">
        <ele>231</ele>
        <time>2017-11-15T08:49:07Z</time>
      </trkpt>
      <trkpt lat="47.17329" lon="5.47175">
        <ele>229</ele>
        <time>2017-11-15T08:49:26Z</time>
      </trkpt>
      <trkpt lat="47.17336" lon="5.47185">
        <ele>229</ele>
        <time>2017-11-15T08:49:33Z</time>
      </trkpt>
      <trkpt lat="47.17343" lon="5.47197">
        <ele>229</ele>
        <time>2017-11-15T08:49:41Z</time>
      </trkpt>
      <trkpt lat="47.17346" lon="5.47203">
        <ele>228</ele>
        <time>2017-11-15T08:49:45Z</time>
      </trkpt>
      <trkpt lat="47.17353" lon="5.47213">
        <ele>228</ele>
        <time>2017-11-15T08:49:53Z</time>
      </trkpt>
      <trkpt lat="47.1737" lon="5.47244">
        <ele>228</ele>
        <time>2017-11-15T08:50:13Z</time>
      </trkpt>
      <trkpt lat="47.17379" lon="5.47263">
        <ele>227</ele>
        <time>2017-11-15T08:50:25Z</time>
      </trkpt>
      <trkpt lat="47.17383" lon="5.4727">
        <ele>227</ele>
        <time>2017-11-15T08:50:29Z</time>
      </trkpt>
      <trkpt lat="47.17411" lon="5.47324">
        <ele>225</ele>
        <time>2017-11-15T08:51:03Z</time>
      </trkpt>
      <trkpt lat="47.17429" lon="5.47361">
        <ele>223</ele>
        <time>2017-11-15T08:51:25Z</time>
      </trkpt>
      <trkpt lat="47.17433" lon="5.47367">
        <ele>224</ele>
        <time>2017-11-15T08:51:29Z</time>
      </trkpt>
      <trkpt lat="47.17449" lon="5.47398">
        <ele>224</ele>
        <time>2017-11-15T08:51:48Z</time>
      </trkpt>
      <trkpt lat="47.17455" lon="5.4741">
        <ele>223</ele>
        <time>2017-11-15T08:51:57Z</time>
      </trkpt>
      <trkpt lat="47.1746" lon="5.47415">
        <ele>222</ele>
        <time>2017-11-15T08:53:04Z</time>
      </trkpt>
      <trkpt lat="47.17465" lon="5.47417">
        <ele>222</ele>
        <time>2017-11-15T08:53:09Z</time>
      </trkpt>
      <trkpt lat="47.1747" lon="5.4742">
        <ele>222</ele>
        <time>2017-11-15T08:53:13Z</time>
      </trkpt>
      <trkpt lat="47.17475" lon="5.47423">
        <ele>221</ele>
        <time>2017-11-15T08:53:17Z</time>
      </trkpt>
      <trkpt lat="47.17479" lon="5.47426">
        <ele>221</ele>
        <time>2017-11-15T08:53:21Z</time>
      </trkpt>
      <trkpt lat="47.17483" lon="5.47431">
        <ele>222</ele>
        <time>2017-11-15T08:53:25Z</time>
      </trkpt>
      <trkpt lat="47.17492" lon="5.4744">
        <ele>222</ele>
        <time>2017-11-15T08:53:35Z</time>
      </trkpt>
      <trkpt lat="47.17496" lon="5.47456">
        <ele>221</ele>
        <time>2017-11-15T08:53:43Z</time>
      </trkpt>
      <trkpt lat="47.17501" lon="5.47468">
        <ele>221</ele>
        <time>2017-11-15T08:53:51Z</time>
      </trkpt>
      <trkpt lat="47.17507" lon="5.47491">
        <ele>220</ele>
        <time>2017-11-15T08:54:03Z</time>
      </trkpt>
      <trkpt lat="47.17531" lon="5.47539">
        <ele>219</ele>
        <time>2017-11-15T08:54:36Z</time>
      </trkpt>
      <trkpt lat="47.17534" lon="5.47544">
        <ele>218</ele>
        <time>2017-11-15T08:54:40Z</time>
      </trkpt>
      <trkpt lat="47.17537" lon="5.47551">
        <ele>218</ele>
        <time>2017-11-15T08:54:44Z</time>
      </trkpt>
      <trkpt lat="47.17537" lon="5.47559">
        <ele>218</ele>
        <time>2017-11-15T08:54:49Z</time>
      </trkpt>
      <trkpt lat="47.17535" lon="5.47564">
        <ele>218</ele>
        <time>2017-11-15T08:54:53Z</time>
      </trkpt>
      <trkpt lat="47.17531" lon="5.47571">
        <ele>218</ele>
        <time>2017-11-15T08:54:57Z</time>
      </trkpt>
      <trkpt lat="47.17515" lon="5.47612">
        <ele>216</ele>
        <time>2017-11-15T08:55:20Z</time>
      </trkpt>
      <trkpt lat="47.17509" lon="5.47625">
        <ele>217</ele>
        <time>2017-11-15T08:55:28Z</time>
      </trkpt>
      <trkpt lat="47.17507" lon="5.47632">
        <ele>217</ele>
        <time>2017-11-15T08:55:32Z</time>
      </trkpt>
      <trkpt lat="47.17504" lon="5.47639">
        <ele>217</ele>
        <time>2017-11-15T08:55:36Z</time>
      </trkpt>
      <trkpt lat="47.175" lon="5.47653">
        <ele>217</ele>
        <time>2017-11-15T08:55:44Z</time>
      </trkpt>
      <trkpt lat="47.17496" lon="5.47676">
        <ele>219</ele>
        <time>2017-11-15T08:55:56Z</time>
      </trkpt>
      <trkpt lat="47.17495" lon="5.47683">
        <ele>219</ele>
        <time>2017-11-15T08:56:00Z</time>
      </trkpt>
      <trkpt lat="47.17495" lon="5.47698">
        <ele>219</ele>
        <time>2017-11-15T08:56:08Z</time>
      </trkpt>
      <trkpt lat="47.17495" lon="5.47706">
        <ele>219</ele>
        <time>2017-11-15T08:56:12Z</time>
      </trkpt>
      <trkpt lat="47.17496" lon="5.47728">
        <ele>220</ele>
        <time>2017-11-15T08:56:24Z</time>
      </trkpt>
      <trkpt lat="47.17494" lon="5.47734">
        <ele>220</ele>
        <time>2017-11-15T08:56:28Z</time>
      </trkpt>
      <trkpt lat="47.17485" lon="5.47744">
        <ele>220</ele>
        <time>2017-11-15T08:56:36Z</time>
      </trkpt>
      <trkpt lat="47.17481" lon="5.47747">
        <ele>221</ele>
        <time>2017-11-15T08:56:40Z</time>
      </trkpt>
      <trkpt lat="47.17455" lon="5.47772">
        <ele>221</ele>
        <time>2017-11-15T08:57:05Z</time>
      </trkpt>
      <trkpt lat="47.17443" lon="5.47787">
        <ele>222</ele>
        <time>2017-11-15T08:57:17Z</time>
      </trkpt>
      <trkpt lat="47.1743" lon="5.47797">
        <ele>222</ele>
        <time>2017-11-15T08:57:29Z</time>
      </trkpt>
      <trkpt lat="47.17426" lon="5.47802">
        <ele>221</ele>
        <time>2017-11-15T08:57:34Z</time>
      </trkpt>
      <trkpt lat="47.17421" lon="5.47806">
        <ele>221</ele>
        <time>2017-11-15T08:57:38Z</time>
      </trkpt>
      <trkpt lat="47.17414" lon="5.47816">
        <ele>221</ele>
        <time>2017-11-15T08:57:47Z</time>
      </trkpt>
      <trkpt lat="47.17394" lon="5.47842">
        <ele>220</ele>
        <time>2017-11-15T08:58:06Z</time>
      </trkpt>
      <trkpt lat="47.1739" lon="5.47847">
        <ele>220</ele>
        <time>2017-11-15T08:58:10Z</time>
      </trkpt>
      <trkpt lat="47.17357" lon="5.47883">
        <ele>219</ele>
        <time>2017-11-15T08:58:42Z</time>
      </trkpt>
      <trkpt lat="47.17335" lon="5.47902">
        <ele>220</ele>
        <time>2017-11-15T08:59:02Z</time>
      </trkpt>
      <trkpt lat="47.1733" lon="5.47904">
        <ele>220</ele>
        <time>2017-11-15T08:59:06Z</time>
      </trkpt>
      <trkpt lat="47.17306" lon="5.47914">
        <ele>221</ele>
        <time>2017-11-15T08:59:26Z</time>
      </trkpt>
      <trkpt lat="47.17266" lon="5.47918">
        <ele>223</ele>
        <time>2017-11-15T08:59:58Z</time>
      </trkpt>
      <trkpt lat="47.1725" lon="5.47918">
        <ele>223</ele>
        <time>2017-11-15T09:00:10Z</time>
      </trkpt>
      <trkpt lat="47.17236" lon="5.4792">
        <ele>224</ele>
        <time>2017-11-15T09:00:22Z</time>
      </trkpt>
      <trkpt lat="47.17227" lon="5.47927">
        <ele>225</ele>
        <time>2017-11-15T09:00:30Z</time>
      </trkpt>
      <trkpt lat="47.17223" lon="5.4793">
        <ele>225</ele>
        <time>2017-11-15T09:00:34Z</time>
      </trkpt>
      <trkpt lat="47.17218" lon="5.47932">
        <ele>224</ele>
        <time>2017-11-15T09:00:42Z</time>
      </trkpt>
      <trkpt lat="47.17211" lon="5.47938">
        <ele>224</ele>
        <time>2017-11-15T09:00:52Z</time>
      </trkpt>
      <trkpt lat="47.17192" lon="5.47949">
        <ele>224</ele>
        <time>2017-11-15T09:01:08Z</time>
      </trkpt>
      <trkpt lat="47.17155" lon="5.47957">
        <ele>221</ele>
        <time>2017-11-15T09:01:36Z</time>
      </trkpt>
      <trkpt lat="47.17134" lon="5.47964">
        <ele>222</ele>
        <time>2017-11-15T09:01:52Z</time>
      </trkpt>
      <trkpt lat="47.1712" lon="5.47974">
        <ele>222</ele>
        <time>2017-11-15T09:02:04Z</time>
      </trkpt>
      <trkpt lat="47.17085" lon="5.48011">
        <ele>222</ele>
        <time>2017-11-15T09:02:37Z</time>
      </trkpt>
      <trkpt lat="47.17056" lon="5.4803">
        <ele>224</ele>
        <time>2017-11-15T09:03:01Z</time>
      </trkpt>
      <trkpt lat="47.17052" lon="5.48033">
        <ele>223</ele>
        <time>2017-11-15T09:03:05Z</time>
      </trkpt>
      <trkpt lat="47.17047" lon="5.48035">
        <ele>223</ele>
        <time>2017-11-15T09:03:09Z</time>
      </trkpt>
      <trkpt lat="47.17017" lon="5.48046">
        <ele>225</ele>
        <time>2017-11-15T09:03:33Z</time>
      </trkpt>
      <trkpt lat="47.17013" lon="5.48048">
        <ele>225</ele>
        <time>2017-11-15T09:03:37Z</time>
      </trkpt>
      <trkpt lat="47.16997" lon="5.48054">
        <ele>225</ele>
        <time>2017-11-15T09:03:49Z</time>
      </trkpt>
      <trkpt lat="47.16971" lon="5.48063">
        <ele>227</ele>
        <time>2017-11-15T09:04:09Z</time>
      </trkpt>
      <trkpt lat="47.16957" lon="5.48069">
        <ele>227</ele>
        <time>2017-11-15T09:04:21Z</time>
      </trkpt>
      <trkpt lat="47.16937" lon="5.48089">
        <ele>230</ele>
        <time>2017-11-15T09:04:42Z</time>
      </trkpt>
      <trkpt lat="47.16897" lon="5.48102">
        <ele>234</ele>
        <time>2017-11-15T09:05:14Z</time>
      </trkpt>
      <trkpt lat="47.16888" lon="5.48105">
        <ele>234</ele>
        <time>2017-11-15T09:05:22Z</time>
      </trkpt>
      <trkpt lat="47.16883" lon="5.48107">
        <ele>234</ele>
        <time>2017-11-15T09:05:26Z</time>
      </trkpt>
      <trkpt lat="47.16877" lon="5.48109">
        <ele>233</ele>
        <time>2017-11-15T09:05:31Z</time>
      </trkpt>
      <trkpt lat="47.16864" lon="5.48115">
        <ele>233</ele>
        <time>2017-11-15T09:05:43Z</time>
      </trkpt>
      <trkpt lat="47.16859" lon="5.48118">
        <ele>234</ele>
        <time>2017-11-15T09:05:47Z</time>
      </trkpt>
      <trkpt lat="47.16855" lon="5.48121">
        <ele>234</ele>
        <time>2017-11-15T09:05:51Z</time>
      </trkpt>
      <trkpt lat="47.16848" lon="5.48131">
        <ele>235</ele>
        <time>2017-11-15T09:05:59Z</time>
      </trkpt>
      <trkpt lat="47.16845" lon="5.48136">
        <ele>236</ele>
        <time>2017-11-15T09:06:03Z</time>
      </trkpt>
      <trkpt lat="47.16837" lon="5.48144">
        <ele>237</ele>
        <time>2017-11-15T09:06:11Z</time>
      </trkpt>
      <trkpt lat="47.16833" lon="5.48149">
        <ele>237</ele>
        <time>2017-11-15T09:06:15Z</time>
      </trkpt>
      <trkpt lat="47.16823" lon="5.48162">
        <ele>238</ele>
        <time>2017-11-15T09:06:27Z</time>
      </trkpt>
      <trkpt lat="47.16815" lon="5.48172">
        <ele>239</ele>
        <time>2017-11-15T09:06:35Z</time>
      </trkpt>
      <trkpt lat="47.16809" lon="5.48183">
        <ele>240</ele>
        <time>2017-11-15T09:06:43Z</time>
      </trkpt>
      <trkpt lat="47.16805" lon="5.48189">
        <ele>240</ele>
        <time>2017-11-15T09:06:48Z</time>
      </trkpt>
      <trkpt lat="47.16802" lon="5.48194">
        <ele>239</ele>
        <time>2017-11-15T09:06:52Z</time>
      </trkpt>
      <trkpt lat="47.16794" lon="5.48202">
        <ele>240</ele>
        <time>2017-11-15T09:07:00Z</time>
      </trkpt>
      <trkpt lat="47.16789" lon="5.48214">
        <ele>240</ele>
        <time>2017-11-15T09:07:08Z</time>
      </trkpt>
      <trkpt lat="47.16786" lon="5.48219">
        <ele>239</ele>
        <time>2017-11-15T09:07:12Z</time>
      </trkpt>
      <trkpt lat="47.16783" lon="5.48225">
        <ele>239</ele>
        <time>2017-11-15T09:07:17Z</time>
      </trkpt>
      <trkpt lat="47.16776" lon="5.48235">
        <ele>239</ele>
        <time>2017-11-15T09:07:29Z</time>
      </trkpt>
      <trkpt lat="47.16772" lon="5.48239">
        <ele>239</ele>
        <time>2017-11-15T09:07:33Z</time>
      </trkpt>
      <trkpt lat="47.16768" lon="5.48245">
        <ele>239</ele>
        <time>2017-11-15T09:07:38Z</time>
      </trkpt>
      <trkpt lat="47.16761" lon="5.48256">
        <ele>241</ele>
        <time>2017-11-15T09:07:50Z</time>
      </trkpt>
      <trkpt lat="47.16756" lon="5.48244">
        <ele>242</ele>
        <time>2017-11-15T09:08:13Z</time>
      </trkpt>
      <trkpt lat="47.16753" lon="5.48239">
        <ele>241</ele>
        <time>2017-11-15T09:08:17Z</time>
      </trkpt>
      <trkpt lat="47.16755" lon="5.48244">
        <ele>240</ele>
        <time>2017-11-15T09:09:23Z</time>
      </trkpt>
      <trkpt lat="47.1676" lon="5.48248">
        <ele>241</ele>
        <time>2017-11-15T09:09:28Z</time>
      </trkpt>
      <trkpt lat="47.16758" lon="5.48255">
        <ele>241</ele>
        <time>2017-11-15T09:09:34Z</time>
      </trkpt>
      <trkpt lat="47.16762" lon="5.4826">
        <ele>247</ele>
        <time>2017-11-15T09:14:27Z</time>
      </trkpt>
      <trkpt lat="47.16736" lon="5.48286">
        <ele>248</ele>
        <time>2017-11-15T09:16:06Z</time>
      </trkpt>
      <trkpt lat="47.16732" lon="5.4829">
        <ele>249</ele>
        <time>2017-11-15T09:16:10Z</time>
      </trkpt>
      <trkpt lat="47.16728" lon="5.48294">
        <ele>250</ele>
        <time>2017-11-15T09:16:15Z</time>
      </trkpt>
      <trkpt lat="47.1672" lon="5.48304">
        <ele>249</ele>
        <time>2017-11-15T09:16:25Z</time>
      </trkpt>
      <trkpt lat="47.16712" lon="5.48313">
        <ele>249</ele>
        <time>2017-11-15T09:16:33Z</time>
      </trkpt>
      <trkpt lat="47.16708" lon="5.48318">
        <ele>249</ele>
        <time>2017-11-15T09:16:38Z</time>
      </trkpt>
      <trkpt lat="47.16704" lon="5.48324">
        <ele>249</ele>
        <time>2017-11-15T09:16:42Z</time>
      </trkpt>
      <trkpt lat="47.16702" lon="5.48329">
        <ele>249</ele>
        <time>2017-11-15T09:16:46Z</time>
      </trkpt>
      <trkpt lat="47.16697" lon="5.48333">
        <ele>250</ele>
        <time>2017-11-15T09:16:50Z</time>
      </trkpt>
      <trkpt lat="47.16692" lon="5.48336">
        <ele>250</ele>
        <time>2017-11-15T09:16:55Z</time>
      </trkpt>
      <trkpt lat="47.1667" lon="5.48355">
        <ele>252</ele>
        <time>2017-11-15T09:17:16Z</time>
      </trkpt>
      <trkpt lat="47.16667" lon="5.48359">
        <ele>253</ele>
        <time>2017-11-15T09:17:22Z</time>
      </trkpt>
      <trkpt lat="47.16653" lon="5.48369">
        <ele>253</ele>
        <time>2017-11-15T09:17:35Z</time>
      </trkpt>
      <trkpt lat="47.16649" lon="5.48372">
        <ele>253</ele>
        <time>2017-11-15T09:17:39Z</time>
      </trkpt>
      <trkpt lat="47.16645" lon="5.48375">
        <ele>253</ele>
        <time>2017-11-15T09:17:43Z</time>
      </trkpt>
      <trkpt lat="47.16631" lon="5.48386">
        <ele>254</ele>
        <time>2017-11-15T09:17:55Z</time>
      </trkpt>
      <trkpt lat="47.16627" lon="5.48389">
        <ele>254</ele>
        <time>2017-11-15T09:17:58Z</time>
      </trkpt>
      <trkpt lat="47.16622" lon="5.48391">
        <ele>254</ele>
        <time>2017-11-15T09:18:02Z</time>
      </trkpt>
      <trkpt lat="47.16609" lon="5.48402">
        <ele>255</ele>
        <time>2017-11-15T09:18:14Z</time>
      </trkpt>
      <trkpt lat="47.16604" lon="5.48407">
        <ele>256</ele>
        <time>2017-11-15T09:18:19Z</time>
      </trkpt>
      <trkpt lat="47.16582" lon="5.48425">
        <ele>259</ele>
        <time>2017-11-15T09:18:39Z</time>
      </trkpt>
      <trkpt lat="47.16578" lon="5.48429">
        <ele>259</ele>
        <time>2017-11-15T09:18:43Z</time>
      </trkpt>
      <trkpt lat="47.16569" lon="5.48436">
        <ele>259</ele>
        <time>2017-11-15T09:18:51Z</time>
      </trkpt>
      <trkpt lat="47.16566" lon="5.48442">
        <ele>259</ele>
        <time>2017-11-15T09:18:56Z</time>
      </trkpt>
      <trkpt lat="47.16561" lon="5.48454">
        <ele>259</ele>
        <time>2017-11-15T09:19:05Z</time>
      </trkpt>
      <trkpt lat="47.16557" lon="5.48459">
        <ele>259</ele>
        <time>2017-11-15T09:19:10Z</time>
      </trkpt>
      <trkpt lat="47.16534" lon="5.48489">
        <ele>258</ele>
        <time>2017-11-15T09:19:33Z</time>
      </trkpt>
      <trkpt lat="47.16531" lon="5.48496">
        <ele>257</ele>
        <time>2017-11-15T09:19:37Z</time>
      </trkpt>
      <trkpt lat="47.16527" lon="5.48509">
        <ele>257</ele>
        <time>2017-11-15T09:19:47Z</time>
      </trkpt>
      <trkpt lat="47.16516" lon="5.48532">
        <ele>257</ele>
        <time>2017-11-15T09:20:02Z</time>
      </trkpt>
      <trkpt lat="47.165" lon="5.48553">
        <ele>258</ele>
        <time>2017-11-15T09:20:20Z</time>
      </trkpt>
      <trkpt lat="47.16473" lon="5.48576">
        <ele>257</ele>
        <time>2017-11-15T09:20:46Z</time>
      </trkpt>
      <trkpt lat="47.16468" lon="5.48578">
        <ele>257</ele>
        <time>2017-11-15T09:20:50Z</time>
      </trkpt>
      <trkpt lat="47.16464" lon="5.48584">
        <ele>257</ele>
        <time>2017-11-15T09:20:55Z</time>
      </trkpt>
      <trkpt lat="47.16452" lon="5.48598">
        <ele>260</ele>
        <time>2017-11-15T09:21:11Z</time>
      </trkpt>
      <trkpt lat="47.16449" lon="5.48603">
        <ele>260</ele>
        <time>2017-11-15T09:21:17Z</time>
      </trkpt>
      <trkpt lat="47.16434" lon="5.48615">
        <ele>259</ele>
        <time>2017-11-15T09:21:30Z</time>
      </trkpt>
      <trkpt lat="47.16427" lon="5.48625">
        <ele>260</ele>
        <time>2017-11-15T09:21:36Z</time>
      </trkpt>
      <trkpt lat="47.16408" lon="5.48637">
        <ele>261</ele>
        <time>2017-11-15T09:21:52Z</time>
      </trkpt>
      <trkpt lat="47.16403" lon="5.4864">
        <ele>261</ele>
        <time>2017-11-15T09:21:57Z</time>
      </trkpt>
      <trkpt lat="47.16367" lon="5.48665">
        <ele>262</ele>
        <time>2017-11-15T09:22:31Z</time>
      </trkpt>
      <trkpt lat="47.1633" lon="5.48692">
        <ele>265</ele>
        <time>2017-11-15T09:23:03Z</time>
      </trkpt>
      <trkpt lat="47.16295" lon="5.4872">
        <ele>266</ele>
        <time>2017-11-15T09:23:35Z</time>
      </trkpt>
      <trkpt lat="47.16274" lon="5.48739">
        <ele>267</ele>
        <time>2017-11-15T09:23:56Z</time>
      </trkpt>
      <trkpt lat="47.16265" lon="5.48746">
        <ele>267</ele>
        <time>2017-11-15T09:24:06Z</time>
      </trkpt>
      <trkpt lat="47.16225" lon="5.48759">
        <ele>269</ele>
        <time>2017-11-15T09:24:41Z</time>
      </trkpt>
      <trkpt lat="47.1622" lon="5.4876">
        <ele>270</ele>
        <time>2017-11-15T09:24:45Z</time>
      </trkpt>
      <trkpt lat="47.16216" lon="5.48761">
        <ele>270</ele>
        <time>2017-11-15T09:24:49Z</time>
      </trkpt>
      <trkpt lat="47.16183" lon="5.48777">
        <ele>275</ele>
        <time>2017-11-15T09:25:21Z</time>
      </trkpt>
      <trkpt lat="47.16179" lon="5.48779">
        <ele>275</ele>
        <time>2017-11-15T09:25:25Z</time>
      </trkpt>
      <trkpt lat="47.16174" lon="5.48784">
        <ele>275</ele>
        <time>2017-11-15T09:25:30Z</time>
      </trkpt>
      <trkpt lat="47.16161" lon="5.48797">
        <ele>276</ele>
        <time>2017-11-15T09:25:48Z</time>
      </trkpt>
      <trkpt lat="47.16158" lon="5.48802">
        <ele>277</ele>
        <time>2017-11-15T09:25:53Z</time>
      </trkpt>
      <trkpt lat="47.16137" lon="5.48832">
        <ele>281</ele>
        <time>2017-11-15T09:26:22Z</time>
      </trkpt>
      <trkpt lat="47.16136" lon="5.48831">
        <ele>280</ele>
        <time>2017-11-15T09:26:54Z</time>
      </trkpt>
      <trkpt lat="47.16132" lon="5.48833">
        <ele>280</ele>
        <time>2017-11-15T09:27:01Z</time>
      </trkpt>
      <trkpt lat="47.16127" lon="5.48833">
        <ele>280</ele>
        <time>2017-11-15T09:27:37Z</time>
      </trkpt>
      <trkpt lat="47.16121" lon="5.48832">
        <ele>281</ele>
        <time>2017-11-15T09:27:41Z</time>
      </trkpt>
      <trkpt lat="47.16115" lon="5.48834">
        <ele>281</ele>
        <time>2017-11-15T09:27:46Z</time>
      </trkpt>
      <trkpt lat="47.16105" lon="5.48835">
        <ele>280</ele>
        <time>2017-11-15T09:27:55Z</time>
      </trkpt>
      <trkpt lat="47.161" lon="5.48835">
        <ele>280</ele>
        <time>2017-11-15T09:28:00Z</time>
      </trkpt>
      <trkpt lat="47.16091" lon="5.48831">
        <ele>281</ele>
        <time>2017-11-15T09:28:10Z</time>
      </trkpt>
      <trkpt lat="47.1605" lon="5.4882">
        <ele>279</ele>
        <time>2017-11-15T09:28:42Z</time>
      </trkpt>
      <trkpt lat="47.16045" lon="5.48817">
        <ele>279</ele>
        <time>2017-11-15T09:28:46Z</time>
      </trkpt>
      <trkpt lat="47.16025" lon="5.48809">
        <ele>279</ele>
        <time>2017-11-15T09:29:02Z</time>
      </trkpt>
      <trkpt lat="47.1602" lon="5.48807">
        <ele>279</ele>
        <time>2017-11-15T09:29:06Z</time>
      </trkpt>
      <trkpt lat="47.16015" lon="5.48804">
        <ele>279</ele>
        <time>2017-11-15T09:29:10Z</time>
      </trkpt>
      <trkpt lat="47.1601" lon="5.48803">
        <ele>279</ele>
        <time>2017-11-15T09:29:14Z</time>
      </trkpt>
      <trkpt lat="47.15985" lon="5.48797">
        <ele>279</ele>
        <time>2017-11-15T09:29:34Z</time>
      </trkpt>
      <trkpt lat="47.15961" lon="5.48788">
        <ele>280</ele>
        <time>2017-11-15T09:29:54Z</time>
      </trkpt>
      <trkpt lat="47.1594" lon="5.48775">
        <ele>278</ele>
        <time>2017-11-15T09:30:11Z</time>
      </trkpt>
      <trkpt lat="47.15919" lon="5.4875">
        <ele>278</ele>
        <time>2017-11-15T09:30:31Z</time>
      </trkpt>
      <trkpt lat="47.15909" lon="5.4873">
        <ele>278</ele>
        <time>2017-11-15T09:30:43Z</time>
      </trkpt>
      <trkpt lat="47.15906" lon="5.48725">
        <ele>277</ele>
        <time>2017-11-15T09:30:47Z</time>
      </trkpt>
      <trkpt lat="47.15899" lon="5.48715">
        <ele>278</ele>
        <time>2017-11-15T09:30:55Z</time>
      </trkpt>
      <trkpt lat="47.15866" lon="5.48681">
        <ele>278</ele>
        <time>2017-11-15T09:31:27Z</time>
      </trkpt>
      <trkpt lat="47.15857" lon="5.48673">
        <ele>278</ele>
        <time>2017-11-15T09:31:35Z</time>
      </trkpt>
      <trkpt lat="47.15833" lon="5.48658">
        <ele>278</ele>
        <time>2017-11-15T09:31:55Z</time>
      </trkpt>
      <trkpt lat="47.1581" lon="5.48628">
        <ele>280</ele>
        <time>2017-11-15T09:32:18Z</time>
      </trkpt>
      <trkpt lat="47.15806" lon="5.48622">
        <ele>280</ele>
        <time>2017-11-15T09:32:22Z</time>
      </trkpt>
      <trkpt lat="47.15773" lon="5.48583">
        <ele>279</ele>
        <time>2017-11-15T09:32:55Z</time>
      </trkpt>
      <trkpt lat="47.15742" lon="5.48544">
        <ele>276</ele>
        <time>2017-11-15T09:33:28Z</time>
      </trkpt>
      <trkpt lat="47.15738" lon="5.48539">
        <ele>275</ele>
        <time>2017-11-15T09:33:32Z</time>
      </trkpt>
      <trkpt lat="47.15707" lon="5.48499">
        <ele>271</ele>
        <time>2017-11-15T09:34:04Z</time>
      </trkpt>
      <trkpt lat="47.15704" lon="5.48494">
        <ele>271</ele>
        <time>2017-11-15T09:34:07Z</time>
      </trkpt>
      <trkpt lat="47.1569" lon="5.4847">
        <ele>269</ele>
        <time>2017-11-15T09:34:23Z</time>
      </trkpt>
      <trkpt lat="47.15688" lon="5.48463">
        <ele>268</ele>
        <time>2017-11-15T09:34:27Z</time>
      </trkpt>
      <trkpt lat="47.15678" lon="5.4843">
        <ele>266</ele>
        <time>2017-11-15T09:34:46Z</time>
      </trkpt>
      <trkpt lat="47.15675" lon="5.48424">
        <ele>266</ele>
        <time>2017-11-15T09:34:50Z</time>
      </trkpt>
      <trkpt lat="47.15662" lon="5.48409">
        <ele>265</ele>
        <time>2017-11-15T09:35:02Z</time>
      </trkpt>
      <trkpt lat="47.15643" lon="5.48399">
        <ele>263</ele>
        <time>2017-11-15T09:35:23Z</time>
      </trkpt>
      <trkpt lat="47.15632" lon="5.48396">
        <ele>264</ele>
        <time>2017-11-15T09:35:31Z</time>
      </trkpt>
      <trkpt lat="47.15618" lon="5.48391">
        <ele>263</ele>
        <time>2017-11-15T09:35:43Z</time>
      </trkpt>
      <trkpt lat="47.15605" lon="5.4838">
        <ele>263</ele>
        <time>2017-11-15T09:35:56Z</time>
      </trkpt>
      <trkpt lat="47.15601" lon="5.48376">
        <ele>263</ele>
        <time>2017-11-15T09:36:00Z</time>
      </trkpt>
      <trkpt lat="47.15601" lon="5.48367">
        <ele>263</ele>
        <time>2017-11-15T09:36:04Z</time>
      </trkpt>
      <trkpt lat="47.15606" lon="5.48354">
        <ele>263</ele>
        <time>2017-11-15T09:36:12Z</time>
      </trkpt>
      <trkpt lat="47.15608" lon="5.48347">
        <ele>262</ele>
        <time>2017-11-15T09:36:16Z</time>
      </trkpt>
      <trkpt lat="47.15609" lon="5.48338">
        <ele>261</ele>
        <time>2017-11-15T09:36:20Z</time>
      </trkpt>
      <trkpt lat="47.15608" lon="5.48324">
        <ele>262</ele>
        <time>2017-11-15T09:36:27Z</time>
      </trkpt>
      <trkpt lat="47.15606" lon="5.48309">
        <ele>262</ele>
        <time>2017-11-15T09:36:35Z</time>
      </trkpt>
      <trkpt lat="47.15605" lon="5.48302">
        <ele>263</ele>
        <time>2017-11-15T09:36:39Z</time>
      </trkpt>
      <trkpt lat="47.15601" lon="5.48288">
        <ele>265</ele>
        <time>2017-11-15T09:36:48Z</time>
      </trkpt>
      <trkpt lat="47.15598" lon="5.48281">
        <ele>265</ele>
        <time>2017-11-15T09:36:52Z</time>
      </trkpt>
      <trkpt lat="47.15591" lon="5.48259">
        <ele>264</ele>
        <time>2017-11-15T09:37:04Z</time>
      </trkpt>
      <trkpt lat="47.15586" lon="5.48246">
        <ele>264</ele>
        <time>2017-11-15T09:37:15Z</time>
      </trkpt>
      <trkpt lat="47.15583" lon="5.48231">
        <ele>263</ele>
        <time>2017-11-15T09:37:23Z</time>
      </trkpt>
      <trkpt lat="47.15579" lon="5.48208">
        <ele>264</ele>
        <time>2017-11-15T09:37:35Z</time>
      </trkpt>
      <trkpt lat="47.15579" lon="5.48178">
        <ele>265</ele>
        <time>2017-11-15T09:37:51Z</time>
      </trkpt>
      <trkpt lat="47.15578" lon="5.48161">
        <ele>266</ele>
        <time>2017-11-15T09:37:59Z</time>
      </trkpt>
      <trkpt lat="47.15577" lon="5.48154">
        <ele>266</ele>
        <time>2017-11-15T09:38:03Z</time>
      </trkpt>
      <trkpt lat="47.15575" lon="5.48148">
        <ele>265</ele>
        <time>2017-11-15T09:38:07Z</time>
      </trkpt>
      <trkpt lat="47.15569" lon="5.48137">
        <ele>264</ele>
        <time>2017-11-15T09:38:15Z</time>
      </trkpt>
      <trkpt lat="47.1555" lon="5.48121">
        <ele>264</ele>
        <time>2017-11-15T09:38:32Z</time>
      </trkpt>
      <trkpt lat="47.15544" lon="5.48111">
        <ele>265</ele>
        <time>2017-11-15T09:38:40Z</time>
      </trkpt>
      <trkpt lat="47.15542" lon="5.48104">
        <ele>265</ele>
        <time>2017-11-15T09:38:45Z</time>
      </trkpt>
      <trkpt lat="47.15536" lon="5.48082">
        <ele>266</ele>
        <time>2017-11-15T09:38:59Z</time>
      </trkpt>
      <trkpt lat="47.15533" lon="5.48077">
        <ele>266</ele>
        <time>2017-11-15T09:39:03Z</time>
      </trkpt>
      <trkpt lat="47.15522" lon="5.48074">
        <ele>265</ele>
        <time>2017-11-15T09:39:11Z</time>
      </trkpt>
      <trkpt lat="47.15517" lon="5.48073">
        <ele>264</ele>
        <time>2017-11-15T09:39:16Z</time>
      </trkpt>
      <trkpt lat="47.15512" lon="5.4807">
        <ele>264</ele>
        <time>2017-11-15T09:39:21Z</time>
      </trkpt>
      <trkpt lat="47.15507" lon="5.48068">
        <ele>263</ele>
        <time>2017-11-15T09:39:26Z</time>
      </trkpt>
      <trkpt lat="47.15499" lon="5.48057">
        <ele>262</ele>
        <time>2017-11-15T09:39:36Z</time>
      </trkpt>
      <trkpt lat="47.15495" lon="5.48056">
        <ele>262</ele>
        <time>2017-11-15T09:39:40Z</time>
      </trkpt>
      <trkpt lat="47.1549" lon="5.48057">
        <ele>262</ele>
        <time>2017-11-15T09:39:44Z</time>
      </trkpt>
      <trkpt lat="47.15482" lon="5.48065">
        <ele>260</ele>
        <time>2017-11-15T09:39:55Z</time>
      </trkpt>
      <trkpt lat="47.15478" lon="5.48071">
        <ele>260</ele>
        <time>2017-11-15T09:39:59Z</time>
      </trkpt>
      <trkpt lat="47.15475" lon="5.48077">
        <ele>259</ele>
        <time>2017-11-15T09:40:03Z</time>
      </trkpt>
      <trkpt lat="47.15471" lon="5.48083">
        <ele>259</ele>
        <time>2017-11-15T09:40:07Z</time>
      </trkpt>
      <trkpt lat="47.15464" lon="5.48093">
        <ele>260</ele>
        <time>2017-11-15T09:40:14Z</time>
      </trkpt>
      <trkpt lat="47.15455" lon="5.48099">
        <ele>261</ele>
        <time>2017-11-15T09:40:23Z</time>
      </trkpt>
      <trkpt lat="47.15451" lon="5.48097">
        <ele>261</ele>
        <time>2017-11-15T09:40:27Z</time>
      </trkpt>
      <trkpt lat="47.15448" lon="5.4809">
        <ele>260</ele>
        <time>2017-11-15T09:40:31Z</time>
      </trkpt>
      <trkpt lat="47.15448" lon="5.48074">
        <ele>258</ele>
        <time>2017-11-15T09:40:39Z</time>
      </trkpt>
      <trkpt lat="47.15446" lon="5.48066">
        <ele>258</ele>
        <time>2017-11-15T09:40:43Z</time>
      </trkpt>
      <trkpt lat="47.15449" lon="5.48043">
        <ele>257</ele>
        <time>2017-11-15T09:40:56Z</time>
      </trkpt>
      <trkpt lat="47.1545" lon="5.48035">
        <ele>257</ele>
        <time>2017-11-15T09:41:00Z</time>
      </trkpt>
      <trkpt lat="47.1545" lon="5.48019">
        <ele>257</ele>
        <time>2017-11-15T09:41:08Z</time>
      </trkpt>
      <trkpt lat="47.15449" lon="5.48013">
        <ele>257</ele>
        <time>2017-11-15T09:41:12Z</time>
      </trkpt>
      <trkpt lat="47.15442" lon="5.4801">
        <ele>257</ele>
        <time>2017-11-15T09:41:23Z</time>
      </trkpt>
      <trkpt lat="47.15423" lon="5.48014">
        <ele>258</ele>
        <time>2017-11-15T09:41:38Z</time>
      </trkpt>
      <trkpt lat="47.15413" lon="5.48013">
        <ele>259</ele>
        <time>2017-11-15T09:41:48Z</time>
      </trkpt>
      <trkpt lat="47.15405" lon="5.48009">
        <ele>259</ele>
        <time>2017-11-15T09:41:54Z</time>
      </trkpt>
      <trkpt lat="47.15395" lon="5.48001">
        <ele>259</ele>
        <time>2017-11-15T09:42:35Z</time>
      </trkpt>
      <trkpt lat="47.15385" lon="5.47999">
        <ele>257</ele>
        <time>2017-11-15T09:42:45Z</time>
      </trkpt>
      <trkpt lat="47.15366" lon="5.47991">
        <ele>256</ele>
        <time>2017-11-15T09:43:02Z</time>
      </trkpt>
      <trkpt lat="47.15361" lon="5.47986">
        <ele>257</ele>
        <time>2017-11-15T09:43:07Z</time>
      </trkpt>
      <trkpt lat="47.15356" lon="5.47984">
        <ele>257</ele>
        <time>2017-11-15T09:43:12Z</time>
      </trkpt>
      <trkpt lat="47.15345" lon="5.47979">
        <ele>256</ele>
        <time>2017-11-15T09:43:21Z</time>
      </trkpt>
      <trkpt lat="47.1534" lon="5.47976">
        <ele>256</ele>
        <time>2017-11-15T09:43:25Z</time>
      </trkpt>
      <trkpt lat="47.15336" lon="5.47974">
        <ele>256</ele>
        <time>2017-11-15T09:43:28Z</time>
      </trkpt>
      <trkpt lat="47.15327" lon="5.47967">
        <ele>255</ele>
        <time>2017-11-15T09:43:37Z</time>
      </trkpt>
      <trkpt lat="47.15317" lon="5.47964">
        <ele>253</ele>
        <time>2017-11-15T09:43:46Z</time>
      </trkpt>
      <trkpt lat="47.15306" lon="5.47948">
        <ele>251</ele>
        <time>2017-11-15T09:44:01Z</time>
      </trkpt>
      <trkpt lat="47.15293" lon="5.47935">
        <ele>248</ele>
        <time>2017-11-15T09:44:15Z</time>
      </trkpt>
      <trkpt lat="47.15288" lon="5.47929">
        <ele>248</ele>
        <time>2017-11-15T09:44:19Z</time>
      </trkpt>
      <trkpt lat="47.15276" lon="5.4792">
        <ele>245</ele>
        <time>2017-11-15T09:44:31Z</time>
      </trkpt>
      <trkpt lat="47.15267" lon="5.47911">
        <ele>243</ele>
        <time>2017-11-15T09:44:38Z</time>
      </trkpt>
      <trkpt lat="47.15259" lon="5.47901">
        <ele>243</ele>
        <time>2017-11-15T09:44:46Z</time>
      </trkpt>
      <trkpt lat="47.15252" lon="5.47891">
        <ele>243</ele>
        <time>2017-11-15T09:44:55Z</time>
      </trkpt>
      <trkpt lat="47.15247" lon="5.47888">
        <ele>242</ele>
        <time>2017-11-15T09:45:02Z</time>
      </trkpt>
      <trkpt lat="47.15244" lon="5.47883">
        <ele>241</ele>
        <time>2017-11-15T09:45:06Z</time>
      </trkpt>
      <trkpt lat="47.15227" lon="5.47864">
        <ele>240</ele>
        <time>2017-11-15T09:45:22Z</time>
      </trkpt>
      <trkpt lat="47.15203" lon="5.47827">
        <ele>240</ele>
        <time>2017-11-15T09:45:50Z</time>
      </trkpt>
      <trkpt lat="47.15194" lon="5.47807">
        <ele>240</ele>
        <time>2017-11-15T09:46:04Z</time>
      </trkpt>
      <trkpt lat="47.15192" lon="5.47801">
        <ele>240</ele>
        <time>2017-11-15T09:46:08Z</time>
      </trkpt>
      <trkpt lat="47.15188" lon="5.47789">
        <ele>240</ele>
        <time>2017-11-15T09:46:17Z</time>
      </trkpt>
      <trkpt lat="47.15184" lon="5.47775">
        <ele>241</ele>
        <time>2017-11-15T09:46:25Z</time>
      </trkpt>
      <trkpt lat="47.15173" lon="5.47747">
        <ele>242</ele>
        <time>2017-11-15T09:46:42Z</time>
      </trkpt>
      <trkpt lat="47.15168" lon="5.47734">
        <ele>242</ele>
        <time>2017-11-15T09:46:50Z</time>
      </trkpt>
      <trkpt lat="47.15166" lon="5.47727">
        <ele>243</ele>
        <time>2017-11-15T09:46:56Z</time>
      </trkpt>
      <trkpt lat="47.15161" lon="5.47714">
        <ele>243</ele>
        <time>2017-11-15T09:47:05Z</time>
      </trkpt>
      <trkpt lat="47.15159" lon="5.47708">
        <ele>243</ele>
        <time>2017-11-15T09:47:10Z</time>
      </trkpt>
      <trkpt lat="47.1516" lon="5.477">
        <ele>243</ele>
        <time>2017-11-15T09:47:16Z</time>
      </trkpt>
      <trkpt lat="47.1516" lon="5.47692">
        <ele>244</ele>
        <time>2017-11-15T09:47:20Z</time>
      </trkpt>
      <trkpt lat="47.15159" lon="5.47685">
        <ele>245</ele>
        <time>2017-11-15T09:47:25Z</time>
      </trkpt>
      <trkpt lat="47.15147" lon="5.4766">
        <ele>247</ele>
        <time>2017-11-15T09:47:44Z</time>
      </trkpt>
      <trkpt lat="47.15143" lon="5.47655">
        <ele>248</ele>
        <time>2017-11-15T09:47:49Z</time>
      </trkpt>
      <trkpt lat="47.15136" lon="5.47645">
        <ele>248</ele>
        <time>2017-11-15T09:47:57Z</time>
      </trkpt>
      <trkpt lat="47.15133" lon="5.47639">
        <ele>248</ele>
        <time>2017-11-15T09:48:02Z</time>
      </trkpt>
      <trkpt lat="47.15129" lon="5.47635">
        <ele>248</ele>
        <time>2017-11-15T09:51:10Z</time>
      </trkpt>
      <trkpt lat="47.15132" lon="5.47626">
        <ele>248</ele>
        <time>2017-11-15T09:51:52Z</time>
      </trkpt>
      <trkpt lat="47.15134" lon="5.47611">
        <ele>249</ele>
        <time>2017-11-15T09:51:59Z</time>
      </trkpt>
      <trkpt lat="47.15136" lon="5.47604">
        <ele>250</ele>
        <time>2017-11-15T09:52:04Z</time>
      </trkpt>
      <trkpt lat="47.15142" lon="5.47591">
        <ele>250</ele>
        <time>2017-11-15T09:52:11Z</time>
      </trkpt>
      <trkpt lat="47.1515" lon="5.47572">
        <ele>249</ele>
        <time>2017-11-15T09:52:21Z</time>
      </trkpt>
      <trkpt lat="47.15155" lon="5.47568">
        <ele>248</ele>
        <time>2017-11-15T09:52:24Z</time>
      </trkpt>
      <trkpt lat="47.1516" lon="5.47566">
        <ele>248</ele>
        <time>2017-11-15T09:52:28Z</time>
      </trkpt>
      <trkpt lat="47.15165" lon="5.47566">
        <ele>248</ele>
        <time>2017-11-15T09:52:32Z</time>
      </trkpt>
      <trkpt lat="47.1517" lon="5.47568">
        <ele>247</ele>
        <time>2017-11-15T09:52:38Z</time>
      </trkpt>
      <trkpt lat="47.15186" lon="5.4757">
        <ele>244</ele>
        <time>2017-11-15T09:52:50Z</time>
      </trkpt>
      <trkpt lat="47.15191" lon="5.47571">
        <ele>244</ele>
        <time>2017-11-15T09:52:54Z</time>
      </trkpt>
      <trkpt lat="47.15206" lon="5.47572">
        <ele>245</ele>
        <time>2017-11-15T09:53:07Z</time>
      </trkpt>
      <trkpt lat="47.15211" lon="5.47569">
        <ele>245</ele>
        <time>2017-11-15T09:53:11Z</time>
      </trkpt>
      <trkpt lat="47.15221" lon="5.47562">
        <ele>244</ele>
        <time>2017-11-15T09:53:18Z</time>
      </trkpt>
      <trkpt lat="47.15232" lon="5.47543">
        <ele>244</ele>
        <time>2017-11-15T09:53:30Z</time>
      </trkpt>
      <trkpt lat="47.15236" lon="5.47539">
        <ele>244</ele>
        <time>2017-11-15T09:53:34Z</time>
      </trkpt>
      <trkpt lat="47.15247" lon="5.47523">
        <ele>245</ele>
        <time>2017-11-15T09:53:45Z</time>
      </trkpt>
      <trkpt lat="47.15255" lon="5.47513">
        <ele>245</ele>
        <time>2017-11-15T09:53:52Z</time>
      </trkpt>
      <trkpt lat="47.15283" lon="5.47475">
        <ele>242</ele>
        <time>2017-11-15T09:54:20Z</time>
      </trkpt>
      <trkpt lat="47.15289" lon="5.47462">
        <ele>240</ele>
        <time>2017-11-15T09:54:28Z</time>
      </trkpt>
      <trkpt lat="47.15293" lon="5.47456">
        <ele>240</ele>
        <time>2017-11-15T09:54:32Z</time>
      </trkpt>
      <trkpt lat="47.15297" lon="5.4745">
        <ele>240</ele>
        <time>2017-11-15T09:54:36Z</time>
      </trkpt>
      <trkpt lat="47.153" lon="5.47443">
        <ele>240</ele>
        <time>2017-11-15T09:54:40Z</time>
      </trkpt>
      <trkpt lat="47.15303" lon="5.47436">
        <ele>241</ele>
        <time>2017-11-15T09:54:44Z</time>
      </trkpt>
      <trkpt lat="47.1531" lon="5.47424">
        <ele>241</ele>
        <time>2017-11-15T09:54:52Z</time>
      </trkpt>
      <trkpt lat="47.15318" lon="5.47411">
        <ele>240</ele>
        <time>2017-11-15T09:55:00Z</time>
      </trkpt>
      <trkpt lat="47.15339" lon="5.47376">
        <ele>240</ele>
        <time>2017-11-15T09:55:23Z</time>
      </trkpt>
      <trkpt lat="47.15347" lon="5.47355">
        <ele>240</ele>
        <time>2017-11-15T09:55:35Z</time>
      </trkpt>
      <trkpt lat="47.1535" lon="5.47348">
        <ele>239</ele>
        <time>2017-11-15T09:55:39Z</time>
      </trkpt>
      <trkpt lat="47.15354" lon="5.47343">
        <ele>239</ele>
        <time>2017-11-15T09:55:42Z</time>
      </trkpt>
      <trkpt lat="47.15356" lon="5.47337">
        <ele>239</ele>
        <time>2017-11-15T09:55:46Z</time>
      </trkpt>
      <trkpt lat="47.15359" lon="5.4733">
        <ele>239</ele>
        <time>2017-11-15T09:55:50Z</time>
      </trkpt>
      <trkpt lat="47.15361" lon="5.47323">
        <ele>238</ele>
        <time>2017-11-15T09:55:54Z</time>
      </trkpt>
      <trkpt lat="47.15363" lon="5.47316">
        <ele>238</ele>
        <time>2017-11-15T09:55:58Z</time>
      </trkpt>
      <trkpt lat="47.15367" lon="5.47293">
        <ele>238</ele>
        <time>2017-11-15T09:56:10Z</time>
      </trkpt>
      <trkpt lat="47.15368" lon="5.47285">
        <ele>237</ele>
        <time>2017-11-15T09:56:14Z</time>
      </trkpt>
      <trkpt lat="47.15368" lon="5.47278">
        <ele>236</ele>
        <time>2017-11-15T09:56:18Z</time>
      </trkpt>
      <trkpt lat="47.15371" lon="5.47264">
        <ele>235</ele>
        <time>2017-11-15T09:56:26Z</time>
      </trkpt>
      <trkpt lat="47.15384" lon="5.47238">
        <ele>235</ele>
        <time>2017-11-15T09:56:42Z</time>
      </trkpt>
      <trkpt lat="47.15387" lon="5.47232">
        <ele>236</ele>
        <time>2017-11-15T09:56:46Z</time>
      </trkpt>
      <trkpt lat="47.1539" lon="5.47226">
        <ele>236</ele>
        <time>2017-11-15T09:56:50Z</time>
      </trkpt>
      <trkpt lat="47.154" lon="5.47206">
        <ele>236</ele>
        <time>2017-11-15T09:57:02Z</time>
      </trkpt>
      <trkpt lat="47.1541" lon="5.47188">
        <ele>235</ele>
        <time>2017-11-15T09:57:15Z</time>
      </trkpt>
      <trkpt lat="47.15421" lon="5.4717">
        <ele>236</ele>
        <time>2017-11-15T09:57:27Z</time>
      </trkpt>
      <trkpt lat="47.15431" lon="5.47154">
        <ele>235</ele>
        <time>2017-11-15T09:57:39Z</time>
      </trkpt>
      <trkpt lat="47.15438" lon="5.47144">
        <ele>235</ele>
        <time>2017-11-15T09:57:47Z</time>
      </trkpt>
      <trkpt lat="47.15442" lon="5.47138">
        <ele>235</ele>
        <time>2017-11-15T09:57:51Z</time>
      </trkpt>
      <trkpt lat="47.15446" lon="5.47136">
        <ele>235</ele>
        <time>2017-11-15T09:57:55Z</time>
      </trkpt>
      <trkpt lat="47.15441" lon="5.4713">
        <ele>231</ele>
        <time>2017-11-15T09:58:45Z</time>
      </trkpt>
      <trkpt lat="47.15435" lon="5.47122">
        <ele>232</ele>
        <time>2017-11-15T09:58:50Z</time>
      </trkpt>
      <trkpt lat="47.15431" lon="5.47117">
        <ele>232</ele>
        <time>2017-11-15T09:58:54Z</time>
      </trkpt>
      <trkpt lat="47.15422" lon="5.4711">
        <ele>230</ele>
        <time>2017-11-15T09:59:03Z</time>
      </trkpt>
      <trkpt lat="47.15413" lon="5.471">
        <ele>229</ele>
        <time>2017-11-15T09:59:11Z</time>
      </trkpt>
      <trkpt lat="47.15401" lon="5.47084">
        <ele>226</ele>
        <time>2017-11-15T09:59:23Z</time>
      </trkpt>
      <trkpt lat="47.15384" lon="5.47056">
        <ele>225</ele>
        <time>2017-11-15T09:59:42Z</time>
      </trkpt>
      <trkpt lat="47.15378" lon="5.47042">
        <ele>225</ele>
        <time>2017-11-15T09:59:48Z</time>
      </trkpt>
      <trkpt lat="47.15375" lon="5.47037">
        <ele>225</ele>
        <time>2017-11-15T09:59:51Z</time>
      </trkpt>
      <trkpt lat="47.15373" lon="5.4703">
        <ele>224</ele>
        <time>2017-11-15T09:59:54Z</time>
      </trkpt>
      <trkpt lat="47.15371" lon="5.47022">
        <ele>223</ele>
        <time>2017-11-15T09:59:58Z</time>
      </trkpt>
      <trkpt lat="47.15371" lon="5.47014">
        <ele>223</ele>
        <time>2017-11-15T10:00:03Z</time>
      </trkpt>
      <trkpt lat="47.15376" lon="5.4701">
        <ele>224</ele>
        <time>2017-11-15T10:00:09Z</time>
      </trkpt>
      <trkpt lat="47.15383" lon="5.46983">
        <ele>226</ele>
        <time>2017-11-15T10:00:25Z</time>
      </trkpt>
      <trkpt lat="47.15387" lon="5.46978">
        <ele>226</ele>
        <time>2017-11-15T10:00:28Z</time>
      </trkpt>
      <trkpt lat="47.15392" lon="5.46975">
        <ele>229</ele>
        <time>2017-11-15T10:00:43Z</time>
      </trkpt>
      <trkpt lat="47.15393" lon="5.46965">
        <ele>230</ele>
        <time>2017-11-15T10:00:56Z</time>
      </trkpt>
      <trkpt lat="47.15393" lon="5.46958">
        <ele>231</ele>
        <time>2017-11-15T10:01:01Z</time>
      </trkpt>
      <trkpt lat="47.15391" lon="5.4695">
        <ele>231</ele>
        <time>2017-11-15T10:01:06Z</time>
      </trkpt>
      <trkpt lat="47.15393" lon="5.46936">
        <ele>230</ele>
        <time>2017-11-15T10:01:14Z</time>
      </trkpt>
      <trkpt lat="47.15396" lon="5.46922">
        <ele>229</ele>
        <time>2017-11-15T10:01:21Z</time>
      </trkpt>
      <trkpt lat="47.154" lon="5.46904">
        <ele>229</ele>
        <time>2017-11-15T10:01:29Z</time>
      </trkpt>
      <trkpt lat="47.15401" lon="5.46897">
        <ele>229</ele>
        <time>2017-11-15T10:01:32Z</time>
      </trkpt>
      <trkpt lat="47.15412" lon="5.46861">
        <ele>231</ele>
        <time>2017-11-15T10:01:55Z</time>
      </trkpt>
      <trkpt lat="47.1542" lon="5.46843">
        <ele>234</ele>
        <time>2017-11-15T10:02:07Z</time>
      </trkpt>
      <trkpt lat="47.15424" lon="5.46838">
        <ele>235</ele>
        <time>2017-11-15T10:02:13Z</time>
      </trkpt>
      <trkpt lat="47.15434" lon="5.46839">
        <ele>235</ele>
        <time>2017-11-15T10:02:21Z</time>
      </trkpt>
      <trkpt lat="47.15439" lon="5.4684">
        <ele>235</ele>
        <time>2017-11-15T10:02:25Z</time>
      </trkpt>
      <trkpt lat="47.15449" lon="5.46838">
        <ele>235</ele>
        <time>2017-11-15T10:02:32Z</time>
      </trkpt>
      <trkpt lat="47.15457" lon="5.46832">
        <ele>237</ele>
        <time>2017-11-15T10:02:39Z</time>
      </trkpt>
      <trkpt lat="47.15463" lon="5.4682">
        <ele>237</ele>
        <time>2017-11-15T10:02:48Z</time>
      </trkpt>
      <trkpt lat="47.15466" lon="5.46807">
        <ele>237</ele>
        <time>2017-11-15T10:02:58Z</time>
      </trkpt>
      <trkpt lat="47.15472" lon="5.46796">
        <ele>237</ele>
        <time>2017-11-15T10:03:08Z</time>
      </trkpt>
      <trkpt lat="47.1549" lon="5.46761">
        <ele>239</ele>
        <time>2017-11-15T10:03:28Z</time>
      </trkpt>
      <trkpt lat="47.15492" lon="5.46747">
        <ele>238</ele>
        <time>2017-11-15T10:03:37Z</time>
      </trkpt>
      <trkpt lat="47.15494" lon="5.46733">
        <ele>237</ele>
        <time>2017-11-15T10:03:43Z</time>
      </trkpt>
      <trkpt lat="47.15503" lon="5.4673">
        <ele>236</ele>
        <time>2017-11-15T10:03:52Z</time>
      </trkpt>
      <trkpt lat="47.15512" lon="5.46734">
        <ele>234</ele>
        <time>2017-11-15T10:04:02Z</time>
      </trkpt>
      <trkpt lat="47.15536" lon="5.46752">
        <ele>234</ele>
        <time>2017-11-15T10:04:22Z</time>
      </trkpt>
      <trkpt lat="47.15566" lon="5.46787">
        <ele>238</ele>
        <time>2017-11-15T10:04:53Z</time>
      </trkpt>
      <trkpt lat="47.15578" lon="5.46777">
        <ele>236</ele>
        <time>2017-11-15T10:05:34Z</time>
      </trkpt>
      <trkpt lat="47.15581" lon="5.46771">
        <ele>236</ele>
        <time>2017-11-15T10:05:39Z</time>
      </trkpt>
      <trkpt lat="47.15585" lon="5.46765">
        <ele>237</ele>
        <time>2017-11-15T10:05:43Z</time>
      </trkpt>
      <trkpt lat="47.15588" lon="5.46759">
        <ele>237</ele>
        <time>2017-11-15T10:05:47Z</time>
      </trkpt>
      <trkpt lat="47.15589" lon="5.46752">
        <ele>238</ele>
        <time>2017-11-15T10:05:52Z</time>
      </trkpt>
      <trkpt lat="47.1559" lon="5.46745">
        <ele>237</ele>
        <time>2017-11-15T10:05:57Z</time>
      </trkpt>
      <trkpt lat="47.15592" lon="5.46737">
        <ele>236</ele>
        <time>2017-11-15T10:06:02Z</time>
      </trkpt>
      <trkpt lat="47.15594" lon="5.4673">
        <ele>236</ele>
        <time>2017-11-15T10:06:06Z</time>
      </trkpt>
      <trkpt lat="47.15596" lon="5.46723">
        <ele>236</ele>
        <time>2017-11-15T10:06:42Z</time>
      </trkpt>
      <trkpt lat="47.15598" lon="5.46716">
        <ele>235</ele>
        <time>2017-11-15T10:06:47Z</time>
      </trkpt>
      <trkpt lat="47.15601" lon="5.46709">
        <ele>235</ele>
        <time>2017-11-15T10:06:51Z</time>
      </trkpt>
      <trkpt lat="47.15606" lon="5.46704">
        <ele>234</ele>
        <time>2017-11-15T10:06:54Z</time>
      </trkpt>
      <trkpt lat="47.15608" lon="5.46698">
        <ele>234</ele>
        <time>2017-11-15T10:07:00Z</time>
      </trkpt>
      <trkpt lat="47.15614" lon="5.46685">
        <ele>234</ele>
        <time>2017-11-15T10:07:10Z</time>
      </trkpt>
      <trkpt lat="47.15618" lon="5.46681">
        <ele>234</ele>
        <time>2017-11-15T10:07:15Z</time>
      </trkpt>
      <trkpt lat="47.15622" lon="5.46674">
        <ele>234</ele>
        <time>2017-11-15T10:07:20Z</time>
      </trkpt>
      <trkpt lat="47.15624" lon="5.46669">
        <ele>235</ele>
        <time>2017-11-15T10:07:24Z</time>
      </trkpt>
      <trkpt lat="47.15628" lon="5.46666">
        <ele>235</ele>
        <time>2017-11-15T10:07:32Z</time>
      </trkpt>
      <trkpt lat="47.15634" lon="5.46646">
        <ele>236</ele>
        <time>2017-11-15T10:07:42Z</time>
      </trkpt>
      <trkpt lat="47.15651" lon="5.46597">
        <ele>241</ele>
        <time>2017-11-15T10:08:15Z</time>
      </trkpt>
      <trkpt lat="47.15655" lon="5.46584">
        <ele>242</ele>
        <time>2017-11-15T10:08:25Z</time>
      </trkpt>
      <trkpt lat="47.15662" lon="5.46575">
        <ele>242</ele>
        <time>2017-11-15T10:08:38Z</time>
      </trkpt>
      <trkpt lat="47.15669" lon="5.46547">
        <ele>243</ele>
        <time>2017-11-15T10:08:53Z</time>
      </trkpt>
      <trkpt lat="47.15676" lon="5.46536">
        <ele>243</ele>
        <time>2017-11-15T10:09:01Z</time>
      </trkpt>
      <trkpt lat="47.1568" lon="5.46523">
        <ele>243</ele>
        <time>2017-11-15T10:09:07Z</time>
      </trkpt>
      <trkpt lat="47.15684" lon="5.46511">
        <ele>245</ele>
        <time>2017-11-15T10:09:14Z</time>
      </trkpt>
      <trkpt lat="47.15689" lon="5.46499">
        <ele>245</ele>
        <time>2017-11-15T10:09:22Z</time>
      </trkpt>
      <trkpt lat="47.15693" lon="5.46486">
        <ele>243</ele>
        <time>2017-11-15T10:09:35Z</time>
      </trkpt>
      <trkpt lat="47.157" lon="5.46476">
        <ele>243</ele>
        <time>2017-11-15T10:09:42Z</time>
      </trkpt>
      <trkpt lat="47.15703" lon="5.46462">
        <ele>244</ele>
        <time>2017-11-15T10:09:50Z</time>
      </trkpt>
      <trkpt lat="47.15709" lon="5.46452">
        <ele>245</ele>
        <time>2017-11-15T10:09:59Z</time>
      </trkpt>
      <trkpt lat="47.15713" lon="5.4644">
        <ele>246</ele>
        <time>2017-11-15T10:10:07Z</time>
      </trkpt>
      <trkpt lat="47.15719" lon="5.46412">
        <ele>245</ele>
        <time>2017-11-15T10:10:22Z</time>
      </trkpt>
      <trkpt lat="47.15729" lon="5.46389">
        <ele>246</ele>
        <time>2017-11-15T10:10:36Z</time>
      </trkpt>
      <trkpt lat="47.15734" lon="5.46378">
        <ele>245</ele>
        <time>2017-11-15T10:10:46Z</time>
      </trkpt>
      <trkpt lat="47.15742" lon="5.46369">
        <ele>242</ele>
        <time>2017-11-15T10:10:55Z</time>
      </trkpt>
      <trkpt lat="47.15756" lon="5.46333">
        <ele>241</ele>
        <time>2017-11-15T10:11:20Z</time>
      </trkpt>
      <trkpt lat="47.15758" lon="5.4632">
        <ele>240</ele>
        <time>2017-11-15T10:11:33Z</time>
      </trkpt>
      <trkpt lat="47.15768" lon="5.46295">
        <ele>239</ele>
        <time>2017-11-15T10:11:50Z</time>
      </trkpt>
      <trkpt lat="47.15773" lon="5.46284">
        <ele>239</ele>
        <time>2017-11-15T10:11:59Z</time>
      </trkpt>
      <trkpt lat="47.15781" lon="5.46259">
        <ele>239</ele>
        <time>2017-11-15T10:12:18Z</time>
      </trkpt>
      <trkpt lat="47.15786" lon="5.46246">
        <ele>239</ele>
        <time>2017-11-15T10:12:27Z</time>
      </trkpt>
      <trkpt lat="47.15792" lon="5.46234">
        <ele>239</ele>
        <time>2017-11-15T10:12:35Z</time>
      </trkpt>
      <trkpt lat="47.15795" lon="5.46221">
        <ele>240</ele>
        <time>2017-11-15T10:12:43Z</time>
      </trkpt>
      <trkpt lat="47.15799" lon="5.46207">
        <ele>240</ele>
        <time>2017-11-15T10:12:51Z</time>
      </trkpt>
      <trkpt lat="47.15811" lon="5.46185">
        <ele>239</ele>
        <time>2017-11-15T10:13:07Z</time>
      </trkpt>
      <trkpt lat="47.15815" lon="5.46173">
        <ele>239</ele>
        <time>2017-11-15T10:13:16Z</time>
      </trkpt>
      <trkpt lat="47.1582" lon="5.46162">
        <ele>238</ele>
        <time>2017-11-15T10:13:24Z</time>
      </trkpt>
      <trkpt lat="47.15824" lon="5.46149">
        <ele>237</ele>
        <time>2017-11-15T10:13:33Z</time>
      </trkpt>
      <trkpt lat="47.15845" lon="5.46107">
        <ele>238</ele>
        <time>2017-11-15T10:14:00Z</time>
      </trkpt>
      <trkpt lat="47.15846" lon="5.461">
        <ele>238</ele>
        <time>2017-11-15T10:14:05Z</time>
      </trkpt>
      <trkpt lat="47.1585" lon="5.46085">
        <ele>237</ele>
        <time>2017-11-15T10:14:16Z</time>
      </trkpt>
      <trkpt lat="47.15853" lon="5.4608">
        <ele>237</ele>
        <time>2017-11-15T10:14:20Z</time>
      </trkpt>
      <trkpt lat="47.15857" lon="5.46076">
        <ele>237</ele>
        <time>2017-11-15T10:14:23Z</time>
      </trkpt>
      <trkpt lat="47.15857" lon="5.46069">
        <ele>236</ele>
        <time>2017-11-15T10:14:29Z</time>
      </trkpt>
      <trkpt lat="47.15865" lon="5.46026">
        <ele>230</ele>
        <time>2017-11-15T10:15:00Z</time>
      </trkpt>
      <trkpt lat="47.15867" lon="5.46018">
        <ele>229</ele>
        <time>2017-11-15T10:15:05Z</time>
      </trkpt>
      <trkpt lat="47.1587" lon="5.46012">
        <ele>229</ele>
        <time>2017-11-15T10:15:08Z</time>
      </trkpt>
      <trkpt lat="47.15874" lon="5.45991">
        <ele>225</ele>
        <time>2017-11-15T10:15:23Z</time>
      </trkpt>
      <trkpt lat="47.15875" lon="5.45983">
        <ele>225</ele>
        <time>2017-11-15T10:15:28Z</time>
      </trkpt>
      <trkpt lat="47.1588" lon="5.45972">
        <ele>223</ele>
        <time>2017-11-15T10:15:39Z</time>
      </trkpt>
      <trkpt lat="47.15881" lon="5.45961">
        <ele>222</ele>
        <time>2017-11-15T10:15:47Z</time>
      </trkpt>
      <trkpt lat="47.15871" lon="5.45955">
        <ele>219</ele>
        <time>2017-11-15T10:15:54Z</time>
      </trkpt>
      <trkpt lat="47.15853" lon="5.45945">
        <ele>214</ele>
        <time>2017-11-15T10:16:08Z</time>
      </trkpt>
      <trkpt lat="47.15815" lon="5.4592">
        <ele>215</ele>
        <time>2017-11-15T10:16:40Z</time>
      </trkpt>
      <trkpt lat="47.15808" lon="5.45911">
        <ele>215</ele>
        <time>2017-11-15T10:16:48Z</time>
      </trkpt>
      <trkpt lat="47.15804" lon="5.45907">
        <ele>216</ele>
        <time>2017-11-15T10:16:52Z</time>
      </trkpt>
      <trkpt lat="47.15799" lon="5.45903">
        <ele>216</ele>
        <time>2017-11-15T10:16:56Z</time>
      </trkpt>
      <trkpt lat="47.15792" lon="5.45894">
        <ele>216</ele>
        <time>2017-11-15T10:17:02Z</time>
      </trkpt>
      <trkpt lat="47.15787" lon="5.45891">
        <ele>217</ele>
        <time>2017-11-15T10:17:07Z</time>
      </trkpt>
      <trkpt lat="47.15782" lon="5.45891">
        <ele>217</ele>
        <time>2017-11-15T10:17:11Z</time>
      </trkpt>
      <trkpt lat="47.15757" lon="5.45892">
        <ele>215</ele>
        <time>2017-11-15T10:17:28Z</time>
      </trkpt>
      <trkpt lat="47.15752" lon="5.45894">
        <ele>215</ele>
        <time>2017-11-15T10:17:32Z</time>
      </trkpt>
      <trkpt lat="47.15741" lon="5.45895">
        <ele>216</ele>
        <time>2017-11-15T10:17:41Z</time>
      </trkpt>
      <trkpt lat="47.15737" lon="5.45897">
        <ele>216</ele>
        <time>2017-11-15T10:17:45Z</time>
      </trkpt>
      <trkpt lat="47.15731" lon="5.45899">
        <ele>216</ele>
        <time>2017-11-15T10:17:49Z</time>
      </trkpt>
      <trkpt lat="47.15726" lon="5.45899">
        <ele>216</ele>
        <time>2017-11-15T10:17:53Z</time>
      </trkpt>
      <trkpt lat="47.15711" lon="5.45898">
        <ele>214</ele>
        <time>2017-11-15T10:18:05Z</time>
      </trkpt>
      <trkpt lat="47.15701" lon="5.45895">
        <ele>214</ele>
        <time>2017-11-15T10:18:12Z</time>
      </trkpt>
      <trkpt lat="47.15686" lon="5.45886">
        <ele>213</ele>
        <time>2017-11-15T10:18:24Z</time>
      </trkpt>
      <trkpt lat="47.1568" lon="5.45885">
        <ele>213</ele>
        <time>2017-11-15T10:18:28Z</time>
      </trkpt>
      <trkpt lat="47.15669" lon="5.45881">
        <ele>213</ele>
        <time>2017-11-15T10:18:36Z</time>
      </trkpt>
      <trkpt lat="47.15664" lon="5.4588">
        <ele>214</ele>
        <time>2017-11-15T10:18:40Z</time>
      </trkpt>
      <trkpt lat="47.15643" lon="5.45874">
        <ele>215</ele>
        <time>2017-11-15T10:18:56Z</time>
      </trkpt>
      <trkpt lat="47.15605" lon="5.45848">
        <ele>214</ele>
        <time>2017-11-15T10:19:28Z</time>
      </trkpt>
      <trkpt lat="47.15566" lon="5.45826">
        <ele>212</ele>
        <time>2017-11-15T10:19:59Z</time>
      </trkpt>
      <trkpt lat="47.15547" lon="5.45813">
        <ele>211</ele>
        <time>2017-11-15T10:20:14Z</time>
      </trkpt>
      <trkpt lat="47.15528" lon="5.45799">
        <ele>211</ele>
        <time>2017-11-15T10:20:30Z</time>
      </trkpt>
      <trkpt lat="47.15523" lon="5.45795">
        <ele>211</ele>
        <time>2017-11-15T10:20:34Z</time>
      </trkpt>
      <trkpt lat="47.15517" lon="5.45797">
        <ele>211</ele>
        <time>2017-11-15T10:20:38Z</time>
      </trkpt>
      <trkpt lat="47.15514" lon="5.45803">
        <ele>210</ele>
        <time>2017-11-15T10:20:42Z</time>
      </trkpt>
      <trkpt lat="47.15512" lon="5.4581">
        <ele>210</ele>
        <time>2017-11-15T10:20:46Z</time>
      </trkpt>
      <trkpt lat="47.15512" lon="5.45817">
        <ele>210</ele>
        <time>2017-11-15T10:20:50Z</time>
      </trkpt>
      <trkpt lat="47.15507" lon="5.45849">
        <ele>209</ele>
        <time>2017-11-15T10:21:06Z</time>
      </trkpt>
      <trkpt lat="47.15504" lon="5.45869">
        <ele>209</ele>
        <time>2017-11-15T10:21:16Z</time>
      </trkpt>
      <trkpt lat="47.15498" lon="5.45891">
        <ele>210</ele>
        <time>2017-11-15T10:21:28Z</time>
      </trkpt>
      <trkpt lat="47.15495" lon="5.45898">
        <ele>210</ele>
        <time>2017-11-15T10:21:32Z</time>
      </trkpt>
      <trkpt lat="47.15492" lon="5.45905">
        <ele>211</ele>
        <time>2017-11-15T10:21:36Z</time>
      </trkpt>
      <trkpt lat="47.15488" lon="5.4592">
        <ele>212</ele>
        <time>2017-11-15T10:21:45Z</time>
      </trkpt>
      <trkpt lat="47.15482" lon="5.45934">
        <ele>215</ele>
        <time>2017-11-15T10:21:54Z</time>
      </trkpt>
      <trkpt lat="47.1548" lon="5.45941">
        <ele>215</ele>
        <time>2017-11-15T10:21:58Z</time>
      </trkpt>
      <trkpt lat="47.15478" lon="5.45949">
        <ele>215</ele>
        <time>2017-11-15T10:22:03Z</time>
      </trkpt>
      <trkpt lat="47.15475" lon="5.45964">
        <ele>215</ele>
        <time>2017-11-15T10:22:12Z</time>
      </trkpt>
      <trkpt lat="47.15473" lon="5.45971">
        <ele>215</ele>
        <time>2017-11-15T10:22:17Z</time>
      </trkpt>
      <trkpt lat="47.15471" lon="5.45978">
        <ele>216</ele>
        <time>2017-11-15T10:22:21Z</time>
      </trkpt>
      <trkpt lat="47.1547" lon="5.45985">
        <ele>216</ele>
        <time>2017-11-15T10:22:25Z</time>
      </trkpt>
      <trkpt lat="47.15468" lon="5.45993">
        <ele>217</ele>
        <time>2017-11-15T10:22:29Z</time>
      </trkpt>
      <trkpt lat="47.15464" lon="5.46006">
        <ele>217</ele>
        <time>2017-11-15T10:22:37Z</time>
      </trkpt>
      <trkpt lat="47.15461" lon="5.46013">
        <ele>217</ele>
        <time>2017-11-15T10:22:41Z</time>
      </trkpt>
      <trkpt lat="47.15457" lon="5.46018">
        <ele>216</ele>
        <time>2017-11-15T10:22:45Z</time>
      </trkpt>
      <trkpt lat="47.15449" lon="5.46025">
        <ele>215</ele>
        <time>2017-11-15T10:22:51Z</time>
      </trkpt>
      <trkpt lat="47.15438" lon="5.46028">
        <ele>214</ele>
        <time>2017-11-15T10:22:59Z</time>
      </trkpt>
      <trkpt lat="47.15433" lon="5.46029">
        <ele>214</ele>
        <time>2017-11-15T10:23:03Z</time>
      </trkpt>
      <trkpt lat="47.15412" lon="5.46027">
        <ele>215</ele>
        <time>2017-11-15T10:23:16Z</time>
      </trkpt>
      <trkpt lat="47.15402" lon="5.46029">
        <ele>216</ele>
        <time>2017-11-15T10:23:24Z</time>
      </trkpt>
      <trkpt lat="47.15397" lon="5.46032">
        <ele>216</ele>
        <time>2017-11-15T10:23:28Z</time>
      </trkpt>
      <trkpt lat="47.15377" lon="5.46037">
        <ele>217</ele>
        <time>2017-11-15T10:23:44Z</time>
      </trkpt>
      <trkpt lat="47.15372" lon="5.4604">
        <ele>217</ele>
        <time>2017-11-15T10:23:49Z</time>
      </trkpt>
      <trkpt lat="47.15357" lon="5.46044">
        <ele>217</ele>
        <time>2017-11-15T10:24:00Z</time>
      </trkpt>
      <trkpt lat="47.15341" lon="5.46042">
        <ele>217</ele>
        <time>2017-11-15T10:24:13Z</time>
      </trkpt>
      <trkpt lat="47.15327" lon="5.46046">
        <ele>215</ele>
        <time>2017-11-15T10:24:25Z</time>
      </trkpt>
      <trkpt lat="47.15322" lon="5.46047">
        <ele>215</ele>
        <time>2017-11-15T10:24:29Z</time>
      </trkpt>
      <trkpt lat="47.15317" lon="5.46048">
        <ele>216</ele>
        <time>2017-11-15T10:24:33Z</time>
      </trkpt>
      <trkpt lat="47.15308" lon="5.46048">
        <ele>216</ele>
        <time>2017-11-15T10:26:44Z</time>
      </trkpt>
      <trkpt lat="47.15304" lon="5.46049">
        <ele>216</ele>
        <time>2017-11-15T10:26:49Z</time>
      </trkpt>
      <trkpt lat="47.15283" lon="5.46057">
        <ele>218</ele>
        <time>2017-11-15T10:27:05Z</time>
      </trkpt>
      <trkpt lat="47.15266" lon="5.46059">
        <ele>217</ele>
        <time>2017-11-15T10:27:17Z</time>
      </trkpt>
      <trkpt lat="47.15223" lon="5.46045">
        <ele>215</ele>
        <time>2017-11-15T10:27:49Z</time>
      </trkpt>
      <trkpt lat="47.15187" lon="5.46029">
        <ele>215</ele>
        <time>2017-11-15T10:28:17Z</time>
      </trkpt>
      <trkpt lat="47.15182" lon="5.46027">
        <ele>215</ele>
        <time>2017-11-15T10:28:21Z</time>
      </trkpt>
      <trkpt lat="47.15163" lon="5.46018">
        <ele>214</ele>
        <time>2017-11-15T10:28:37Z</time>
      </trkpt>
      <trkpt lat="47.15152" lon="5.46015">
        <ele>214</ele>
        <time>2017-11-15T10:28:45Z</time>
      </trkpt>
      <trkpt lat="47.15137" lon="5.4601">
        <ele>214</ele>
        <time>2017-11-15T10:28:57Z</time>
      </trkpt>
      <trkpt lat="47.15113" lon="5.46002">
        <ele>213</ele>
        <time>2017-11-15T10:29:17Z</time>
      </trkpt>
      <trkpt lat="47.15098" lon="5.45996">
        <ele>211</ele>
        <time>2017-11-15T10:29:29Z</time>
      </trkpt>
      <trkpt lat="47.15089" lon="5.45992">
        <ele>211</ele>
        <time>2017-11-15T10:29:36Z</time>
      </trkpt>
      <trkpt lat="47.15084" lon="5.45989">
        <ele>211</ele>
        <time>2017-11-15T10:29:40Z</time>
      </trkpt>
      <trkpt lat="47.15079" lon="5.45987">
        <ele>212</ele>
        <time>2017-11-15T10:29:44Z</time>
      </trkpt>
      <trkpt lat="47.15068" lon="5.45983">
        <ele>212</ele>
        <time>2017-11-15T10:29:52Z</time>
      </trkpt>
      <trkpt lat="47.15026" lon="5.45967">
        <ele>212</ele>
        <time>2017-11-15T10:30:24Z</time>
      </trkpt>
      <trkpt lat="47.15011" lon="5.45961">
        <ele>211</ele>
        <time>2017-11-15T10:30:36Z</time>
      </trkpt>
      <trkpt lat="47.14974" lon="5.45933">
        <ele>211</ele>
        <time>2017-11-15T10:31:08Z</time>
      </trkpt>
      <trkpt lat="47.1494" lon="5.45905">
        <ele>211</ele>
        <time>2017-11-15T10:31:36Z</time>
      </trkpt>
      <trkpt lat="47.1493" lon="5.45897">
        <ele>211</ele>
        <time>2017-11-15T10:31:44Z</time>
      </trkpt>
      <trkpt lat="47.14894" lon="5.45864">
        <ele>211</ele>
        <time>2017-11-15T10:32:16Z</time>
      </trkpt>
      <trkpt lat="47.14876" lon="5.45847">
        <ele>211</ele>
        <time>2017-11-15T10:32:32Z</time>
      </trkpt>
      <trkpt lat="47.14867" lon="5.45839">
        <ele>210</ele>
        <time>2017-11-15T10:32:40Z</time>
      </trkpt>
      <trkpt lat="47.14858" lon="5.45832">
        <ele>211</ele>
        <time>2017-11-15T10:32:48Z</time>
      </trkpt>
      <trkpt lat="47.14837" lon="5.45814">
        <ele>210</ele>
        <time>2017-11-15T10:33:08Z</time>
      </trkpt>
      <trkpt lat="47.14819" lon="5.45798">
        <ele>210</ele>
        <time>2017-11-15T10:33:24Z</time>
      </trkpt>
      <trkpt lat="47.14814" lon="5.45796">
        <ele>210</ele>
        <time>2017-11-15T10:33:28Z</time>
      </trkpt>
      <trkpt lat="47.14809" lon="5.45798">
        <ele>210</ele>
        <time>2017-11-15T10:33:32Z</time>
      </trkpt>
      <trkpt lat="47.14805" lon="5.45804">
        <ele>210</ele>
        <time>2017-11-15T10:33:36Z</time>
      </trkpt>
      <trkpt lat="47.14803" lon="5.45812">
        <ele>210</ele>
        <time>2017-11-15T10:33:40Z</time>
      </trkpt>
      <trkpt lat="47.14798" lon="5.45834">
        <ele>208</ele>
        <time>2017-11-15T10:33:52Z</time>
      </trkpt>
      <trkpt lat="47.14784" lon="5.45888">
        <ele>210</ele>
        <time>2017-11-15T10:34:25Z</time>
      </trkpt>
      <trkpt lat="47.14772" lon="5.45921">
        <ele>212</ele>
        <time>2017-11-15T10:34:47Z</time>
      </trkpt>
      <trkpt lat="47.1477" lon="5.45928">
        <ele>212</ele>
        <time>2017-11-15T10:34:55Z</time>
      </trkpt>
      <trkpt lat="47.14766" lon="5.45933">
        <ele>212</ele>
        <time>2017-11-15T10:35:01Z</time>
      </trkpt>
      <trkpt lat="47.14761" lon="5.45936">
        <ele>212</ele>
        <time>2017-11-15T10:35:06Z</time>
      </trkpt>
      <trkpt lat="47.14756" lon="5.45935">
        <ele>212</ele>
        <time>2017-11-15T10:35:11Z</time>
      </trkpt>
      <trkpt lat="47.14746" lon="5.45934">
        <ele>212</ele>
        <time>2017-11-15T10:35:20Z</time>
      </trkpt>
      <trkpt lat="47.14736" lon="5.45929">
        <ele>212</ele>
        <time>2017-11-15T10:35:30Z</time>
      </trkpt>
      <trkpt lat="47.14732" lon="5.45925">
        <ele>213</ele>
        <time>2017-11-15T10:35:34Z</time>
      </trkpt>
      <trkpt lat="47.14708" lon="5.45914">
        <ele>212</ele>
        <time>2017-11-15T10:35:55Z</time>
      </trkpt>
      <trkpt lat="47.14698" lon="5.4591">
        <ele>210</ele>
        <time>2017-11-15T10:36:03Z</time>
      </trkpt>
      <trkpt lat="47.14693" lon="5.45908">
        <ele>210</ele>
        <time>2017-11-15T10:36:07Z</time>
      </trkpt>
      <trkpt lat="47.14679" lon="5.45898">
        <ele>211</ele>
        <time>2017-11-15T10:36:19Z</time>
      </trkpt>
      <trkpt lat="47.14669" lon="5.45896">
        <ele>211</ele>
        <time>2017-11-15T10:36:27Z</time>
      </trkpt>
      <trkpt lat="47.14664" lon="5.45893">
        <ele>210</ele>
        <time>2017-11-15T10:36:31Z</time>
      </trkpt>
      <trkpt lat="47.1466" lon="5.4589">
        <ele>210</ele>
        <time>2017-11-15T10:36:36Z</time>
      </trkpt>
      <trkpt lat="47.14655" lon="5.45889">
        <ele>210</ele>
        <time>2017-11-15T10:36:40Z</time>
      </trkpt>
      <trkpt lat="47.1465" lon="5.45888">
        <ele>210</ele>
        <time>2017-11-15T10:36:44Z</time>
      </trkpt>
      <trkpt lat="47.14641" lon="5.45893">
        <ele>210</ele>
        <time>2017-11-15T10:36:52Z</time>
      </trkpt>
      <trkpt lat="47.14634" lon="5.45904">
        <ele>209</ele>
        <time>2017-11-15T10:37:00Z</time>
      </trkpt>
      <trkpt lat="47.14619" lon="5.4591">
        <ele>209</ele>
        <time>2017-11-15T10:37:12Z</time>
      </trkpt>
      <trkpt lat="47.14615" lon="5.45915">
        <ele>209</ele>
        <time>2017-11-15T10:37:16Z</time>
      </trkpt>
      <trkpt lat="47.14613" lon="5.4592">
        <ele>209</ele>
        <time>2017-11-15T10:37:20Z</time>
      </trkpt>
      <trkpt lat="47.14612" lon="5.45928">
        <ele>208</ele>
        <time>2017-11-15T10:37:25Z</time>
      </trkpt>
      <trkpt lat="47.14609" lon="5.45934">
        <ele>207</ele>
        <time>2017-11-15T10:37:29Z</time>
      </trkpt>
      <trkpt lat="47.14605" lon="5.45937">
        <ele>207</ele>
        <time>2017-11-15T10:37:33Z</time>
      </trkpt>
      <trkpt lat="47.14596" lon="5.45938">
        <ele>206</ele>
        <time>2017-11-15T10:37:53Z</time>
      </trkpt>
    </trkseg>
  </trk>
</gpx>